Home > Products > Valid Products > TAF

000
FTUS44 KHGX 280304 AAA
TAFIAH
TAF AMD
KIAH 280304Z 2803/2906 VRB02KT P6SM SCT250
     FM281900 13006KT P6SM SCT250
     FM290000 VRB03KT P6SM SCT250=



000
FTUS44 KHGX 280304 AAA
TAFHOU
TAF AMD
KHOU 280304Z 2803/2824 VRB03KT P6SM SCT250
     FM281900 12006KT P6SM FEW050 SCT250=



000
FTUS44 KHGX 280304 AAA
TAFHOU
TAF AMD
KHOU 280304Z 2803/2824 VRB03KT P6SM SCT250
     FM281900 12006KT P6SM FEW050 SCT250=



000
FTUS44 KHGX 280304 AAA
TAFIAH
TAF AMD
KIAH 280304Z 2803/2906 VRB02KT P6SM SCT250
     FM281900 13006KT P6SM SCT250
     FM290000 VRB03KT P6SM SCT250=



000
FTUS44 KHGX 280304 AAA
TAFIAH
TAF AMD
KIAH 280304Z 2803/2906 VRB02KT P6SM SCT250
     FM281900 13006KT P6SM SCT250
     FM290000 VRB03KT P6SM SCT250=



000
FTUS44 KHGX 280304 AAA
TAFIAH
TAF AMD
KIAH 280304Z 2803/2906 VRB02KT P6SM SCT250
     FM281900 13006KT P6SM SCT250
     FM290000 VRB03KT P6SM SCT250=



000
FTUS44 KHGX 280304 AAA
TAFHOU
TAF AMD
KHOU 280304Z 2803/2824 VRB03KT P6SM SCT250
     FM281900 12006KT P6SM FEW050 SCT250=



000
FTUS44 KHGX 280304 AAA
TAFHOU
TAF AMD
KHOU 280304Z 2803/2824 VRB03KT P6SM SCT250
     FM281900 12006KT P6SM FEW050 SCT250=



000
FTUS44 KHGX 272320
TAFSGR
TAF
KSGR 272320Z 2800/2824 VRB03KT P6SM SKC
     FM281900 12005KT P6SM SCT250=



000
FTUS44 KHGX 272320
TAFHOU
TAF
KHOU 272320Z 2800/2824 VRB03KT P6SM FEW060 BKN250
     FM281900 12006KT P6SM FEW050 SCT250=



000
FTUS44 KHGX 272320
TAFIAH
TAF
KIAH 272320Z 2800/2906 VRB03KT P6SM SCT250
     FM281900 13006KT P6SM SCT250
     FM290000 VRB03KT P6SM SCT250=



000
FTUS44 KHGX 272320
TAFCXO
TAF
KCXO 272320Z 2800/2824 VRB03KT P6SM SKC
     FM282100 09006KT P6SM SCT250=



000
FTUS44 KHGX 272320
TAFGLS
TAF
KGLS 272320Z 2800/2824 01007KT P6SM SKC
     FM280300 VRB04KT P6SM SKC
     FM281100 36007KT P6SM FEW040
     FM281800 11008KT P6SM SCT045=



000
FTUS44 KHGX 272320
TAFLBX
TAF
KLBX 272320Z 2800/2824 VRB03KT P6SM SKC
     FM281800 15007KT P6SM SCT045=



000
FTUS44 KHGX 272320
TAFHOU
TAF
KHOU 272320Z 2800/2824 VRB03KT P6SM FEW060 BKN250
     FM281900 12006KT P6SM FEW050 SCT250=



000
FTUS44 KHGX 272320
TAFCLL
TAF
KCLL 272320Z 2800/2824 VRB03KT P6SM SKC
     FM281500 10009KT P6SM SCT250
     FM282100 16008KT P6SM SCT250=



000
FTUS44 KHGX 272320
TAFUTS
TAF
KUTS 272320Z 2800/2824 VRB03KT P6SM SKC
     FM281900 17006KT P6SM SCT250=



000
FTUS44 KHGX 272320
TAFSGR
TAF
KSGR 272320Z 2800/2824 VRB03KT P6SM SKC
     FM281900 12005KT P6SM SCT250=



000
FTUS44 KHGX 272320
TAFUTS
TAF
KUTS 272320Z 2800/2824 VRB03KT P6SM SKC
     FM281900 17006KT P6SM SCT250=



000
FTUS44 KHGX 272320
TAFCXO
TAF
KCXO 272320Z 2800/2824 VRB03KT P6SM SKC
     FM282100 09006KT P6SM SCT250=



000
FTUS44 KHGX 272320
TAFSGR
TAF
KSGR 272320Z 2800/2824 VRB03KT P6SM SKC
     FM281900 12005KT P6SM SCT250=



000
FTUS44 KHGX 272320
TAFGLS
TAF
KGLS 272320Z 2800/2824 01007KT P6SM SKC
     FM280300 VRB04KT P6SM SKC
     FM281100 36007KT P6SM FEW040
     FM281800 11008KT P6SM SCT045=



000
FTUS44 KHGX 272320
TAFCLL
TAF
KCLL 272320Z 2800/2824 VRB03KT P6SM SKC
     FM281500 10009KT P6SM SCT250
     FM282100 16008KT P6SM SCT250=



000
FTUS44 KHGX 272320
TAFCLL
TAF
KCLL 272320Z 2800/2824 VRB03KT P6SM SKC
     FM281500 10009KT P6SM SCT250
     FM282100 16008KT P6SM SCT250=



000
FTUS44 KHGX 272320
TAFSGR
TAF
KSGR 272320Z 2800/2824 VRB03KT P6SM SKC
     FM281900 12005KT P6SM SCT250=



000
FTUS44 KHGX 272320
TAFLBX
TAF
KLBX 272320Z 2800/2824 VRB03KT P6SM SKC
     FM281800 15007KT P6SM SCT045=



000
FTUS44 KHGX 272320
TAFCXO
TAF
KCXO 272320Z 2800/2824 VRB03KT P6SM SKC
     FM282100 09006KT P6SM SCT250=



000
FTUS44 KHGX 272320
TAFIAH
TAF
KIAH 272320Z 2800/2906 VRB03KT P6SM SCT250
     FM281900 13006KT P6SM SCT250
     FM290000 VRB03KT P6SM SCT250=



000
FTUS44 KHGX 272320
TAFUTS
TAF
KUTS 272320Z 2800/2824 VRB03KT P6SM SKC
     FM281900 17006KT P6SM SCT250=



000
FTUS44 KHGX 272320
TAFIAH
TAF
KIAH 272320Z 2800/2906 VRB03KT P6SM SCT250
     FM281900 13006KT P6SM SCT250
     FM290000 VRB03KT P6SM SCT250=



000
FTUS44 KHGX 272320
TAFHOU
TAF
KHOU 272320Z 2800/2824 VRB03KT P6SM FEW060 BKN250
     FM281900 12006KT P6SM FEW050 SCT250=



000
FTUS44 KHGX 272320
TAFGLS
TAF
KGLS 272320Z 2800/2824 01007KT P6SM SKC
     FM280300 VRB04KT P6SM SKC
     FM281100 36007KT P6SM FEW040
     FM281800 11008KT P6SM SCT045=



000
FTUS44 KHGX 272320
TAFHOU
TAF
KHOU 272320Z 2800/2824 VRB03KT P6SM FEW060 BKN250
     FM281900 12006KT P6SM FEW050 SCT250=



000
FTUS44 KHGX 272320
TAFCXO
TAF
KCXO 272320Z 2800/2824 VRB03KT P6SM SKC
     FM282100 09006KT P6SM SCT250=



000
FTUS44 KHGX 272320
TAFIAH
TAF
KIAH 272320Z 2800/2906 VRB03KT P6SM SCT250
     FM281900 13006KT P6SM SCT250
     FM290000 VRB03KT P6SM SCT250=



000
FTUS44 KHGX 272320
TAFUTS
TAF
KUTS 272320Z 2800/2824 VRB03KT P6SM SKC
     FM281900 17006KT P6SM SCT250=



000
FTUS44 KHGX 272320
TAFGLS
TAF
KGLS 272320Z 2800/2824 01007KT P6SM SKC
     FM280300 VRB04KT P6SM SKC
     FM281100 36007KT P6SM FEW040
     FM281800 11008KT P6SM SCT045=



000
FTUS44 KHGX 272320
TAFLBX
TAF
KLBX 272320Z 2800/2824 VRB03KT P6SM SKC
     FM281800 15007KT P6SM SCT045=



000
FTUS44 KHGX 272320
TAFLBX
TAF
KLBX 272320Z 2800/2824 VRB03KT P6SM SKC
     FM281800 15007KT P6SM SCT045=



000
FTUS44 KHGX 272046 AAB
TAFHOU
TAF AMD
KHOU 272046Z 2721/2818 VRB06KT P6SM FEW050 FEW250=



000
FTUS44 KHGX 272046 AAA
TAFIAH
TAF AMD
KIAH 272046Z 2721/2824 VRB05KT P6SM FEW060 FEW250=



000
FTUS44 KHGX 272046 AAA
TAFIAH
TAF AMD
KIAH 272046Z 2721/2824 VRB05KT P6SM FEW060 FEW250=



000
FTUS44 KHGX 272046 AAB
TAFHOU
TAF AMD
KHOU 272046Z 2721/2818 VRB06KT P6SM FEW050 FEW250=



000
FTUS44 KHGX 271720
TAFCXO
TAF
KCXO 271720Z 2718/2818 VRB05KT P6SM FEW250=



000
FTUS44 KHGX 271720
TAFUTS
TAF
KUTS 271720Z 2718/2818 VRB05KT P6SM FEW250=



000
FTUS44 KHGX 271720
TAFGLS
TAF
KGLS 271720Z 2718/2818 04008KT P6SM SKC
     FM272100 09010KT P6SM SKC
     FM280000 14008KT P6SM SKC
     FM280300 VRB05KT P6SM SKC
     FM281100 36007KT P6SM SKC=



000
FTUS44 KHGX 271720
TAFGLS
TAF
KGLS 271720Z 2718/2818 04008KT P6SM SKC
     FM272100 09010KT P6SM SKC
     FM280000 14008KT P6SM SKC
     FM280300 VRB05KT P6SM SKC
     FM281100 36007KT P6SM SKC=



000
FTUS44 KHGX 271720
TAFCXO
TAF
KCXO 271720Z 2718/2818 VRB05KT P6SM FEW250=



000
FTUS44 KHGX 271720
TAFUTS
TAF
KUTS 271720Z 2718/2818 VRB05KT P6SM FEW250=



000
FTUS44 KHGX 271720
TAFSGR
TAF
KSGR 271720Z 2718/2818 VRB05KT P6SM FEW250=



000
FTUS44 KHGX 271720
TAFUTS
TAF
KUTS 271720Z 2718/2818 VRB05KT P6SM FEW250=



000
FTUS44 KHGX 271720
TAFIAH
TAF
KIAH 271720Z 2718/2824 VRB05KT P6SM FEW250=



000
FTUS44 KHGX 271720
TAFCXO
TAF
KCXO 271720Z 2718/2818 VRB05KT P6SM FEW250=



000
FTUS44 KHGX 271720
TAFLBX
TAF
KLBX 271720Z 2718/2818 VRB05KT P6SM FEW250=



000
FTUS44 KHGX 271720
TAFLBX
TAF
KLBX 271720Z 2718/2818 VRB05KT P6SM FEW250=



000
FTUS44 KHGX 271720
TAFHOU
TAF
KHOU 271720Z 2718/2818 VRB06KT P6SM FEW250=



000
FTUS44 KHGX 271720
TAFLBX
TAF
KLBX 271720Z 2718/2818 VRB05KT P6SM FEW250=



000
FTUS44 KHGX 271720
TAFIAH
TAF
KIAH 271720Z 2718/2824 VRB05KT P6SM FEW250=



000
FTUS44 KHGX 271720
TAFIAH
TAF
KIAH 271720Z 2718/2824 VRB05KT P6SM FEW250=



000
FTUS44 KHGX 271720
TAFCXO
TAF
KCXO 271720Z 2718/2818 VRB05KT P6SM FEW250=



000
FTUS44 KHGX 271720
TAFHOU
TAF
KHOU 271720Z 2718/2818 VRB06KT P6SM FEW250=



000
FTUS44 KHGX 271720
TAFCLL
TAF
KCLL 271720Z 2718/2818 VRB05KT P6SM FEW250=



000
FTUS44 KHGX 271720
TAFSGR
TAF
KSGR 271720Z 2718/2818 VRB05KT P6SM FEW250=



000
FTUS44 KHGX 271720
TAFIAH
TAF
KIAH 271720Z 2718/2824 VRB05KT P6SM FEW250=



000
FTUS44 KHGX 271720
TAFCLL
TAF
KCLL 271720Z 2718/2818 VRB05KT P6SM FEW250=



000
FTUS44 KHGX 271720
TAFGLS
TAF
KGLS 271720Z 2718/2818 04008KT P6SM SKC
     FM272100 09010KT P6SM SKC
     FM280000 14008KT P6SM SKC
     FM280300 VRB05KT P6SM SKC
     FM281100 36007KT P6SM SKC=



000
FTUS44 KHGX 271720
TAFGLS
TAF
KGLS 271720Z 2718/2818 04008KT P6SM SKC
     FM272100 09010KT P6SM SKC
     FM280000 14008KT P6SM SKC
     FM280300 VRB05KT P6SM SKC
     FM281100 36007KT P6SM SKC=



000
FTUS44 KHGX 271720
TAFUTS
TAF
KUTS 271720Z 2718/2818 VRB05KT P6SM FEW250=



000
FTUS44 KHGX 271720
TAFCLL
TAF
KCLL 271720Z 2718/2818 VRB05KT P6SM FEW250=



000
FTUS44 KHGX 271720
TAFHOU
TAF
KHOU 271720Z 2718/2818 VRB06KT P6SM FEW250=



000
FTUS44 KHGX 271720
TAFSGR
TAF
KSGR 271720Z 2718/2818 VRB05KT P6SM FEW250=



000
FTUS44 KHGX 271720
TAFSGR
TAF
KSGR 271720Z 2718/2818 VRB05KT P6SM FEW250=



000
FTUS44 KHGX 271720
TAFHOU
TAF
KHOU 271720Z 2718/2818 VRB06KT P6SM FEW250=



000
FTUS44 KHGX 271517 AAA
TAFHOU
TAF AMD
KHOU 271517Z 2715/2812 VRB06KT P6SM FEW250=



000
FTUS44 KHGX 271517 AAA
TAFHOU
TAF AMD
KHOU 271517Z 2715/2812 VRB06KT P6SM FEW250=



000
FTUS44 KHGX 271451 AAA
TAFIAH
TAF AMD
KIAH 271451Z 2715/2818 VRB05KT P6SM FEW250=



000
FTUS44 KHGX 271451 AAA
TAFIAH
TAF AMD
KIAH 271451Z 2715/2818 VRB05KT P6SM FEW250=



000
FTUS44 KHGX 271451 AAA
TAFIAH
TAF AMD
KIAH 271451Z 2715/2818 VRB05KT P6SM FEW250=



000
FTUS44 KHGX 271451 AAA
TAFIAH
TAF AMD
KIAH 271451Z 2715/2818 VRB05KT P6SM FEW250=



000
FTUS44 KHGX 271138
TAFSGR
TAF
KSGR 271138Z 2712/2812 VRB05KT P6SM FEW250=



000
FTUS44 KHGX 271138
TAFGLS
TAF
KGLS 271138Z 2712/2812 36007KT P6SM FEW250
     FM271500 04008KT P6SM SKC
     FM272100 09010KT P6SM SKC
     FM280000 14008KT P6SM SKC
     FM280300 16004KT P6SM SKC=



000
FTUS44 KHGX 271138
TAFCXO
TAF
KCXO 271138Z 2712/2812 VRB05KT P6SM FEW250
      TEMPO 2712/2713 4SM BR
     FM280900 00000KT 4SM BR SKC=



000
FTUS44 KHGX 271138
TAFLBX
TAF
KLBX 271138Z 2712/2812 VRB05KT P6SM FEW250
      TEMPO 2712/2713 5SM BR=



000
FTUS44 KHGX 271138
TAFUTS
TAF
KUTS 271138Z 2712/2812 VRB05KT P6SM FEW250=



000
FTUS44 KHGX 271138
TAFCLL
TAF
KCLL 271138Z 2712/2812 VRB05KT P6SM FEW250=



000
FTUS44 KHGX 271138
TAFHOU
TAF
KHOU 271138Z 2712/2812 VRB05KT P6SM FEW250=



000
FTUS44 KHGX 271138
TAFUTS
TAF
KUTS 271138Z 2712/2812 VRB05KT P6SM FEW250=



000
FTUS44 KHGX 271138
TAFSGR
TAF
KSGR 271138Z 2712/2812 VRB05KT P6SM FEW250=



000
FTUS44 KHGX 271138
TAFCXO
TAF
KCXO 271138Z 2712/2812 VRB05KT P6SM FEW250
      TEMPO 2712/2713 4SM BR
     FM280900 00000KT 4SM BR SKC=



000
FTUS44 KHGX 271138
TAFGLS
TAF
KGLS 271138Z 2712/2812 36007KT P6SM FEW250
     FM271500 04008KT P6SM SKC
     FM272100 09010KT P6SM SKC
     FM280000 14008KT P6SM SKC
     FM280300 16004KT P6SM SKC=



000
FTUS44 KHGX 271138
TAFIAH
TAF
KIAH 271138Z 2712/2818 VRB05KT P6SM FEW250=



000
FTUS44 KHGX 271138
TAFGLS
TAF
KGLS 271138Z 2712/2812 36007KT P6SM FEW250
     FM271500 04008KT P6SM SKC
     FM272100 09010KT P6SM SKC
     FM280000 14008KT P6SM SKC
     FM280300 16004KT P6SM SKC=



000
FTUS44 KHGX 271138
TAFLBX
TAF
KLBX 271138Z 2712/2812 VRB05KT P6SM FEW250
      TEMPO 2712/2713 5SM BR=



000
FTUS44 KHGX 271138
TAFCXO
TAF
KCXO 271138Z 2712/2812 VRB05KT P6SM FEW250
      TEMPO 2712/2713 4SM BR
     FM280900 00000KT 4SM BR SKC=



000
FTUS44 KHGX 271138
TAFCXO
TAF
KCXO 271138Z 2712/2812 VRB05KT P6SM FEW250
      TEMPO 2712/2713 4SM BR
     FM280900 00000KT 4SM BR SKC=



000
FTUS44 KHGX 271138
TAFUTS
TAF
KUTS 271138Z 2712/2812 VRB05KT P6SM FEW250=



000
FTUS44 KHGX 271138
TAFCLL
TAF
KCLL 271138Z 2712/2812 VRB05KT P6SM FEW250=



000
FTUS44 KHGX 271138
TAFIAH
TAF
KIAH 271138Z 2712/2818 VRB05KT P6SM FEW250=



000
FTUS44 KHGX 271138
TAFHOU
TAF
KHOU 271138Z 2712/2812 VRB05KT P6SM FEW250=



000
FTUS44 KHGX 271138
TAFSGR
TAF
KSGR 271138Z 2712/2812 VRB05KT P6SM FEW250=



000
FTUS44 KHGX 271138
TAFSGR
TAF
KSGR 271138Z 2712/2812 VRB05KT P6SM FEW250=



000
FTUS44 KHGX 271138
TAFCLL
TAF
KCLL 271138Z 2712/2812 VRB05KT P6SM FEW250=



000
FTUS44 KHGX 271138
TAFLBX
TAF
KLBX 271138Z 2712/2812 VRB05KT P6SM FEW250
      TEMPO 2712/2713 5SM BR=



000
FTUS44 KHGX 271138
TAFIAH
TAF
KIAH 271138Z 2712/2818 VRB05KT P6SM FEW250=



000
FTUS44 KHGX 271138
TAFHOU
TAF
KHOU 271138Z 2712/2812 VRB05KT P6SM FEW250=



000
FTUS44 KHGX 271138
TAFHOU
TAF
KHOU 271138Z 2712/2812 VRB05KT P6SM FEW250=



000
FTUS44 KHGX 271138
TAFIAH
TAF
KIAH 271138Z 2712/2818 VRB05KT P6SM FEW250=



000
FTUS44 KHGX 271138
TAFGLS
TAF
KGLS 271138Z 2712/2812 36007KT P6SM FEW250
     FM271500 04008KT P6SM SKC
     FM272100 09010KT P6SM SKC
     FM280000 14008KT P6SM SKC
     FM280300 16004KT P6SM SKC=



000
FTUS44 KHGX 271138
TAFCLL
TAF
KCLL 271138Z 2712/2812 VRB05KT P6SM FEW250=



000
FTUS44 KHGX 271138
TAFUTS
TAF
KUTS 271138Z 2712/2812 VRB05KT P6SM FEW250=



000
FTUS44 KHGX 271138
TAFLBX
TAF
KLBX 271138Z 2712/2812 VRB05KT P6SM FEW250
      TEMPO 2712/2713 5SM BR=



000
FTUS44 KHGX 270917 AAA
TAFUTS
TAF AMD
KUTS 270917Z 2709/2806 VRB05KT P6SM FEW250=



000
FTUS44 KHGX 270917 AAA
TAFCXO
TAF AMD
KCXO 270917Z 2709/2806 VRB05KT P6SM FEW250
      TEMPO 2712/2713 4SM BR=



000
FTUS44 KHGX 270917 AAA
TAFCLL
TAF AMD
KCLL 270917Z 2709/2806 VRB05KT P6SM FEW250=



000
FTUS44 KHGX 270917 AAA
TAFLBX
TAF AMD
KLBX 270917Z 2709/2806 VRB05KT P6SM FEW250
      TEMPO 2712/2713 5SM BR=



000
FTUS44 KHGX 270917 AAA
TAFHOU
TAF AMD
KHOU 270917Z 2709/2806 VRB05KT P6SM FEW250=



000
FTUS44 KHGX 270917 AAA
TAFSGR
TAF AMD
KSGR 270917Z 2709/2806 VRB05KT P6SM FEW250=



000
FTUS44 KHGX 270917 AAA
TAFIAH
TAF AMD
KIAH 270917Z 2709/2812 VRB05KT P6SM FEW250=



000
FTUS44 KHGX 270917 AAA
TAFGLS
TAF AMD
KGLS 270917Z 2709/2806 36007KT P6SM FEW250
     FM271500 04008KT P6SM SKC
     FM272100 09010KT P6SM SKC
     FM280000 14008KT P6SM SKC
     FM280300 16004KT P6SM SKC=



000
FTUS44 KHGX 270917 AAA
TAFCLL
TAF AMD
KCLL 270917Z 2709/2806 VRB05KT P6SM FEW250=



000
FTUS44 KHGX 270917 AAA
TAFUTS
TAF AMD
KUTS 270917Z 2709/2806 VRB05KT P6SM FEW250=



000
FTUS44 KHGX 270917 AAA
TAFSGR
TAF AMD
KSGR 270917Z 2709/2806 VRB05KT P6SM FEW250=



000
FTUS44 KHGX 270917 AAA
TAFHOU
TAF AMD
KHOU 270917Z 2709/2806 VRB05KT P6SM FEW250=



000
FTUS44 KHGX 270917 AAA
TAFLBX
TAF AMD
KLBX 270917Z 2709/2806 VRB05KT P6SM FEW250
      TEMPO 2712/2713 5SM BR=



000
FTUS44 KHGX 270917 AAA
TAFHOU
TAF AMD
KHOU 270917Z 2709/2806 VRB05KT P6SM FEW250=



000
FTUS44 KHGX 270917 AAA
TAFIAH
TAF AMD
KIAH 270917Z 2709/2812 VRB05KT P6SM FEW250=



000
FTUS44 KHGX 270917 AAA
TAFCLL
TAF AMD
KCLL 270917Z 2709/2806 VRB05KT P6SM FEW250=



000
FTUS44 KHGX 270917 AAA
TAFCXO
TAF AMD
KCXO 270917Z 2709/2806 VRB05KT P6SM FEW250
      TEMPO 2712/2713 4SM BR=



000
FTUS44 KHGX 270917 AAA
TAFCXO
TAF AMD
KCXO 270917Z 2709/2806 VRB05KT P6SM FEW250
      TEMPO 2712/2713 4SM BR=



000
FTUS44 KHGX 270917 AAA
TAFLBX
TAF AMD
KLBX 270917Z 2709/2806 VRB05KT P6SM FEW250
      TEMPO 2712/2713 5SM BR=



000
FTUS44 KHGX 270917 AAA
TAFGLS
TAF AMD
KGLS 270917Z 2709/2806 36007KT P6SM FEW250
     FM271500 04008KT P6SM SKC
     FM272100 09010KT P6SM SKC
     FM280000 14008KT P6SM SKC
     FM280300 16004KT P6SM SKC=



000
FTUS44 KHGX 270917 AAA
TAFGLS
TAF AMD
KGLS 270917Z 2709/2806 36007KT P6SM FEW250
     FM271500 04008KT P6SM SKC
     FM272100 09010KT P6SM SKC
     FM280000 14008KT P6SM SKC
     FM280300 16004KT P6SM SKC=



000
FTUS44 KHGX 270917 AAA
TAFUTS
TAF AMD
KUTS 270917Z 2709/2806 VRB05KT P6SM FEW250=



000
FTUS44 KHGX 270917 AAA
TAFSGR
TAF AMD
KSGR 270917Z 2709/2806 VRB05KT P6SM FEW250=



000
FTUS44 KHGX 270917 AAA
TAFIAH
TAF AMD
KIAH 270917Z 2709/2812 VRB05KT P6SM FEW250=



000
FTUS44 KHGX 270520
TAFCLL
TAF
KCLL 270520Z 2706/2806 13004KT P6SM SKC
     FM271400 09007KT P6SM SKC
     FM272100 16008KT P6SM SKC
     FM280200 VRB03KT P6SM SKC=



000
FTUS44 KHGX 270520
TAFGLS
TAF
KGLS 270520Z 2706/2806 VRB02KT P6SM SKC
     FM271100 03009KT P6SM SKC
     FM271800 07008KT P6SM SKC
     FM272200 13007KT P6SM SKC=



000
FTUS44 KHGX 270520
TAFCXO
TAF
KCXO 270520Z 2706/2806 VRB02KT P6SM SKC
     FM271000 VRB02KT 6SM BR SKC
     FM271400 09007KT P6SM SKC
     FM272300 VRB02KT P6SM SKC=



000
FTUS44 KHGX 270520
TAFHOU
TAF
KHOU 270520Z 2706/2806 18005KT P6SM SKC
     FM271500 08005KT P6SM SKC
     FM272100 12007KT P6SM SKC
     FM280000 15004KT P6SM SKC=



000
FTUS44 KHGX 270520
TAFLBX
TAF
KLBX 270520Z 2706/2806 VRB02KT P6SM SKC
     FM271000 VRB02KT 6SM BR SKC
     FM271400 06006KT P6SM SKC
     FM272000 11008KT P6SM SKC
     FM280200 VRB02KT P6SM SKC=



000
FTUS44 KHGX 270520
TAFUTS
TAF
KUTS 270520Z 2706/2806 VRB03KT P6SM SKC
     FM271500 08006KT P6SM SKC
     FM272300 VRB02KT P6SM SKC=



000
FTUS44 KHGX 270520
TAFUTS
TAF
KUTS 270520Z 2706/2806 VRB03KT P6SM SKC
     FM271500 08006KT P6SM SKC
     FM272300 VRB02KT P6SM SKC=



000
FTUS44 KHGX 270520
TAFSGR
TAF
KSGR 270520Z 2706/2806 17003KT P6SM SKC
     FM271300 08008KT P6SM SKC
     FM272100 11006KT P6SM SKC
     FM280100 15006KT P6SM SKC=



000
FTUS44 KHGX 270520
TAFCLL
TAF
KCLL 270520Z 2706/2806 13004KT P6SM SKC
     FM271400 09007KT P6SM SKC
     FM272100 16008KT P6SM SKC
     FM280200 VRB03KT P6SM SKC=



000
FTUS44 KHGX 270520
TAFGLS
TAF
KGLS 270520Z 2706/2806 VRB02KT P6SM SKC
     FM271100 03009KT P6SM SKC
     FM271800 07008KT P6SM SKC
     FM272200 13007KT P6SM SKC=



000
FTUS44 KHGX 270520
TAFLBX
TAF
KLBX 270520Z 2706/2806 VRB02KT P6SM SKC
     FM271000 VRB02KT 6SM BR SKC
     FM271400 06006KT P6SM SKC
     FM272000 11008KT P6SM SKC
     FM280200 VRB02KT P6SM SKC=



000
FTUS44 KHGX 270520
TAFLBX
TAF
KLBX 270520Z 2706/2806 VRB02KT P6SM SKC
     FM271000 VRB02KT 6SM BR SKC
     FM271400 06006KT P6SM SKC
     FM272000 11008KT P6SM SKC
     FM280200 VRB02KT P6SM SKC=



000
FTUS44 KHGX 270520
TAFCXO
TAF
KCXO 270520Z 2706/2806 VRB02KT P6SM SKC
     FM271000 VRB02KT 6SM BR SKC
     FM271400 09007KT P6SM SKC
     FM272300 VRB02KT P6SM SKC=



000
FTUS44 KHGX 270520
TAFIAH
TAF
KIAH 270520Z 2706/2812 VRB02KT P6SM SKC
     FM271500 08007KT P6SM SKC
     FM280000 VRB03KT P6SM SKC=



000
FTUS44 KHGX 270520
TAFIAH
TAF
KIAH 270520Z 2706/2812 VRB02KT P6SM SKC
     FM271500 08007KT P6SM SKC
     FM280000 VRB03KT P6SM SKC=



000
FTUS44 KHGX 270520
TAFCLL
TAF
KCLL 270520Z 2706/2806 13004KT P6SM SKC
     FM271400 09007KT P6SM SKC
     FM272100 16008KT P6SM SKC
     FM280200 VRB03KT P6SM SKC=



000
FTUS44 KHGX 270520
TAFGLS
TAF
KGLS 270520Z 2706/2806 VRB02KT P6SM SKC
     FM271100 03009KT P6SM SKC
     FM271800 07008KT P6SM SKC
     FM272200 13007KT P6SM SKC=



000
FTUS44 KHGX 270520
TAFSGR
TAF
KSGR 270520Z 2706/2806 17003KT P6SM SKC
     FM271300 08008KT P6SM SKC
     FM272100 11006KT P6SM SKC
     FM280100 15006KT P6SM SKC=



000
FTUS44 KHGX 270520
TAFHOU
TAF
KHOU 270520Z 2706/2806 18005KT P6SM SKC
     FM271500 08005KT P6SM SKC
     FM272100 12007KT P6SM SKC
     FM280000 15004KT P6SM SKC=



000
FTUS44 KHGX 270520
TAFLBX
TAF
KLBX 270520Z 2706/2806 VRB02KT P6SM SKC
     FM271000 VRB02KT 6SM BR SKC
     FM271400 06006KT P6SM SKC
     FM272000 11008KT P6SM SKC
     FM280200 VRB02KT P6SM SKC=



000
FTUS44 KHGX 270520
TAFUTS
TAF
KUTS 270520Z 2706/2806 VRB03KT P6SM SKC
     FM271500 08006KT P6SM SKC
     FM272300 VRB02KT P6SM SKC=



000
FTUS44 KHGX 270520
TAFUTS
TAF
KUTS 270520Z 2706/2806 VRB03KT P6SM SKC
     FM271500 08006KT P6SM SKC
     FM272300 VRB02KT P6SM SKC=



000
FTUS44 KHGX 270520
TAFGLS
TAF
KGLS 270520Z 2706/2806 VRB02KT P6SM SKC
     FM271100 03009KT P6SM SKC
     FM271800 07008KT P6SM SKC
     FM272200 13007KT P6SM SKC=



000
FTUS44 KHGX 270520
TAFCXO
TAF
KCXO 270520Z 2706/2806 VRB02KT P6SM SKC
     FM271000 VRB02KT 6SM BR SKC
     FM271400 09007KT P6SM SKC
     FM272300 VRB02KT P6SM SKC=



000
FTUS44 KHGX 270520
TAFCXO
TAF
KCXO 270520Z 2706/2806 VRB02KT P6SM SKC
     FM271000 VRB02KT 6SM BR SKC
     FM271400 09007KT P6SM SKC
     FM272300 VRB02KT P6SM SKC=



000
FTUS44 KHGX 270520
TAFIAH
TAF
KIAH 270520Z 2706/2812 VRB02KT P6SM SKC
     FM271500 08007KT P6SM SKC
     FM280000 VRB03KT P6SM SKC=



000
FTUS44 KHGX 270520
TAFSGR
TAF
KSGR 270520Z 2706/2806 17003KT P6SM SKC
     FM271300 08008KT P6SM SKC
     FM272100 11006KT P6SM SKC
     FM280100 15006KT P6SM SKC=



000
FTUS44 KHGX 270520
TAFSGR
TAF
KSGR 270520Z 2706/2806 17003KT P6SM SKC
     FM271300 08008KT P6SM SKC
     FM272100 11006KT P6SM SKC
     FM280100 15006KT P6SM SKC=



000
FTUS44 KHGX 270520
TAFIAH
TAF
KIAH 270520Z 2706/2812 VRB02KT P6SM SKC
     FM271500 08007KT P6SM SKC
     FM280000 VRB03KT P6SM SKC=



000
FTUS44 KHGX 270520
TAFHOU
TAF
KHOU 270520Z 2706/2806 18005KT P6SM SKC
     FM271500 08005KT P6SM SKC
     FM272100 12007KT P6SM SKC
     FM280000 15004KT P6SM SKC=



000
FTUS44 KHGX 270520
TAFCLL
TAF
KCLL 270520Z 2706/2806 13004KT P6SM SKC
     FM271400 09007KT P6SM SKC
     FM272100 16008KT P6SM SKC
     FM280200 VRB03KT P6SM SKC=



000
FTUS44 KHGX 270306 AAA
TAFHOU
TAF AMD
KHOU 270306Z 2703/2724 VRB03KT P6SM SKC
     FM271500 08005KT P6SM SKC
     FM272100 12007KT P6SM SKC=



000
FTUS44 KHGX 270306 AAA
TAFIAH
TAF AMD
KIAH 270306Z 2703/2806 VRB03KT P6SM SKC
     FM271500 08007KT P6SM SKC
     FM280000 VRB03KT P6SM SKC=



000
FTUS44 KHGX 270306 AAA
TAFHOU
TAF AMD
KHOU 270306Z 2703/2724 VRB03KT P6SM SKC
     FM271500 08005KT P6SM SKC
     FM272100 12007KT P6SM SKC=



000
FTUS44 KHGX 262320
TAFCLL
TAF
KCLL 262320Z 2700/2724 16007KT P6SM SKC
     FM270300 VRB02KT P6SM SKC
     FM271400 09007KT P6SM SKC
     FM272100 16007KT P6SM SKC=



000
FTUS44 KHGX 262320
TAFIAH
TAF
KIAH 262320Z 2700/2806 VRB03KT P6SM SKC
     FM271500 08007KT P6SM SKC
     FM280000 VRB03KT P6SM SKC=



000
FTUS44 KHGX 262320
TAFUTS
TAF
KUTS 262320Z 2700/2724 VRB02KT P6SM SKC
     FM271500 08006KT P6SM SKC=



000
FTUS44 KHGX 262320
TAFGLS
TAF
KGLS 262320Z 2700/2724 09007KT P6SM SKC
     FM270400 VRB04KT P6SM SKC
     FM271100 03009KT P6SM SKC
     FM271800 07008KT P6SM SKC=



000
FTUS44 KHGX 262320
TAFCXO
TAF
KCXO 262320Z 2700/2724 VRB02KT P6SM SKC
     FM271000 VRB02KT 6SM BR SKC
     FM271400 09007KT P6SM SKC=



000
FTUS44 KHGX 262320
TAFGLS
TAF
KGLS 262320Z 2700/2724 09007KT P6SM SKC
     FM270400 VRB04KT P6SM SKC
     FM271100 03009KT P6SM SKC
     FM271800 07008KT P6SM SKC=



000
FTUS44 KHGX 262320
TAFIAH
TAF
KIAH 262320Z 2700/2806 VRB03KT P6SM SKC
     FM271500 08007KT P6SM SKC
     FM280000 VRB03KT P6SM SKC=



000
FTUS44 KHGX 262320
TAFLBX
TAF
KLBX 262320Z 2700/2724 VRB03KT P6SM SKC
     FM271000 VRB02KT 6SM BR SKC
     FM271400 06006KT P6SM SKC
     FM272000 11008KT P6SM SKC=



000
FTUS44 KHGX 262320
TAFSGR
TAF
KSGR 262320Z 2700/2724 VRB03KT P6SM SKC
     FM271300 08008KT P6SM SKC
     FM272100 11006KT P6SM SKC=



000
FTUS44 KHGX 262320
TAFCLL
TAF
KCLL 262320Z 2700/2724 16007KT P6SM SKC
     FM270300 VRB02KT P6SM SKC
     FM271400 09007KT P6SM SKC
     FM272100 16007KT P6SM SKC=



000
FTUS44 KHGX 262320
TAFHOU
TAF
KHOU 262320Z 2700/2724 VRB03KT P6SM SKC
     FM271500 08005KT P6SM SKC
     FM272100 12007KT P6SM SKC=



000
FTUS44 KHGX 262320
TAFHOU
TAF
KHOU 262320Z 2700/2724 VRB03KT P6SM SKC
     FM271500 08005KT P6SM SKC
     FM272100 12007KT P6SM SKC=



000
FTUS44 KHGX 262320
TAFSGR
TAF
KSGR 262320Z 2700/2724 VRB03KT P6SM SKC
     FM271300 08008KT P6SM SKC
     FM272100 11006KT P6SM SKC=



000
FTUS44 KHGX 262320
TAFLBX
TAF
KLBX 262320Z 2700/2724 VRB03KT P6SM SKC
     FM271000 VRB02KT 6SM BR SKC
     FM271400 06006KT P6SM SKC
     FM272000 11008KT P6SM SKC=



000
FTUS44 KHGX 262112 AAA
TAFGLS
TAF AMD
KGLS 262112Z 2621/2718 09008KT P6SM SKC
     FM270000 11007KT P6SM SKC
     FM270400 VRB04KT P6SM SKC
     FM271200 03007KT P6SM SKC=



000
FTUS44 KHGX 262112 AAA
TAFGLS
TAF AMD
KGLS 262112Z 2621/2718 09008KT P6SM SKC
     FM270000 11007KT P6SM SKC
     FM270400 VRB04KT P6SM SKC
     FM271200 03007KT P6SM SKC=



000
FTUS44 KHGX 262112 AAA
TAFGLS
TAF AMD
KGLS 262112Z 2621/2718 09008KT P6SM SKC
     FM270000 11007KT P6SM SKC
     FM270400 VRB04KT P6SM SKC
     FM271200 03007KT P6SM SKC=



000
FTUS44 KHGX 262112 AAA
TAFGLS
TAF AMD
KGLS 262112Z 2621/2718 09008KT P6SM SKC
     FM270000 11007KT P6SM SKC
     FM270400 VRB04KT P6SM SKC
     FM271200 03007KT P6SM SKC=



000
FTUS44 KHGX 262103 AAA
TAFHOU
TAF AMD
KHOU 262103Z 2621/2718 08006KT P6SM SKC
     FM270300 VRB03KT P6SM SKC
     FM271700 08005KT P6SM SKC=



000
FTUS44 KHGX 262103 AAA
TAFIAH
TAF AMD
KIAH 262103Z 2621/2724 09007KT P6SM SKC
     FM270300 VRB03KT P6SM SKC
     FM271700 08005KT P6SM SKC=



000
FTUS44 KHGX 262103 AAA
TAFIAH
TAF AMD
KIAH 262103Z 2621/2724 09007KT P6SM SKC
     FM270300 VRB03KT P6SM SKC
     FM271700 08005KT P6SM SKC=



000
FTUS44 KHGX 262103 AAA
TAFIAH
TAF AMD
KIAH 262103Z 2621/2724 09007KT P6SM SKC
     FM270300 VRB03KT P6SM SKC
     FM271700 08005KT P6SM SKC=



000
FTUS44 KHGX 262103 AAA
TAFIAH
TAF AMD
KIAH 262103Z 2621/2724 09007KT P6SM SKC
     FM270300 VRB03KT P6SM SKC
     FM271700 08005KT P6SM SKC=



000
FTUS44 KHGX 262103 AAA
TAFHOU
TAF AMD
KHOU 262103Z 2621/2718 08006KT P6SM SKC
     FM270300 VRB03KT P6SM SKC
     FM271700 08005KT P6SM SKC=



000
FTUS44 KHGX 262103 AAA
TAFHOU
TAF AMD
KHOU 262103Z 2621/2718 08006KT P6SM SKC
     FM270300 VRB03KT P6SM SKC
     FM271700 08005KT P6SM SKC=



000
FTUS44 KHGX 262103 AAA
TAFHOU
TAF AMD
KHOU 262103Z 2621/2718 08006KT P6SM SKC
     FM270300 VRB03KT P6SM SKC
     FM271700 08005KT P6SM SKC=



000
FTUS44 KHGX 261725
TAFLBX
TAF
KLBX 261725Z 2618/2718 06008KT P6SM FEW028
     FM270000 13005KT P6SM SKC
     FM270300 VRB03KT P6SM SKC
      TEMPO 2708/2711 5SM BR
     FM271400 03004KT P6SM SKC=



000
FTUS44 KHGX 261725
TAFGLS
TAF
KGLS 261725Z 2618/2718 05013KT P6SM SKC
     FM270000 11007KT P6SM SKC
     FM270400 VRB04KT P6SM SKC
     FM271200 03007KT P6SM SKC=



000
FTUS44 KHGX 261725
TAFLBX
TAF
KLBX 261725Z 2618/2718 06008KT P6SM FEW028
     FM270000 13005KT P6SM SKC
     FM270300 VRB03KT P6SM SKC
      TEMPO 2708/2711 5SM BR
     FM271400 03004KT P6SM SKC=



000
FTUS44 KHGX 261725
TAFGLS
TAF
KGLS 261725Z 2618/2718 05013KT P6SM SKC
     FM270000 11007KT P6SM SKC
     FM270400 VRB04KT P6SM SKC
     FM271200 03007KT P6SM SKC=



000
FTUS44 KHGX 261725
TAFUTS
TAF
KUTS 261725Z 2618/2718 08004KT P6SM FEW035
     FM270100 00000KT P6SM SKC=



000
FTUS44 KHGX 261725
TAFUTS
TAF
KUTS 261725Z 2618/2718 08004KT P6SM FEW035
     FM270100 00000KT P6SM SKC=



000
FTUS44 KHGX 261725
TAFCLL
TAF
KCLL 261725Z 2618/2718 09005KT P6SM SCT050 SCT070
     FM270300 VRB02KT P6SM SKC
      TEMPO 2710/2713 5SM BR=



000
FTUS44 KHGX 261725
TAFGLS
TAF
KGLS 261725Z 2618/2718 05013KT P6SM SKC
     FM270000 11007KT P6SM SKC
     FM270400 VRB04KT P6SM SKC
     FM271200 03007KT P6SM SKC=



000
FTUS44 KHGX 261725
TAFCLL
TAF
KCLL 261725Z 2618/2718 09005KT P6SM SCT050 SCT070
     FM270300 VRB02KT P6SM SKC
      TEMPO 2710/2713 5SM BR=



000
FTUS44 KHGX 261725
TAFLBX
TAF
KLBX 261725Z 2618/2718 06008KT P6SM FEW028
     FM270000 13005KT P6SM SKC
     FM270300 VRB03KT P6SM SKC
      TEMPO 2708/2711 5SM BR
     FM271400 03004KT P6SM SKC=



000
FTUS44 KHGX 261725
TAFIAH
TAF
KIAH 261725Z 2618/2724 07009KT P6SM FEW070 SCT250
     FM270300 VRB03KT P6SM SKC
     FM271700 08005KT P6SM SKC=



000
FTUS44 KHGX 261725
TAFGLS
TAF
KGLS 261725Z 2618/2718 05013KT P6SM SKC
     FM270000 11007KT P6SM SKC
     FM270400 VRB04KT P6SM SKC
     FM271200 03007KT P6SM SKC=



000
FTUS44 KHGX 261725
TAFSGR
TAF
KSGR 261725Z 2618/2718 09009KT P6SM FEW080
     FM270300 VRB03KT P6SM SKC
     FM271700 08005KT P6SM SKC=



000
FTUS44 KHGX 261725
TAFCXO
TAF
KCXO 261725Z 2618/2718 09007KT P6SM SKC
     FM270300 VRB02KT P6SM SKC
      TEMPO 2710/2713 5SM BR=



000
FTUS44 KHGX 261725
TAFHOU
TAF
KHOU 261725Z 2618/2718 07010KT P6SM FEW060 SCT250
     FM270300 VRB03KT P6SM SKC
     FM271700 08005KT P6SM SKC=



000
FTUS44 KHGX 261725
TAFLBX
TAF
KLBX 261725Z 2618/2718 06008KT P6SM FEW028
     FM270000 13005KT P6SM SKC
     FM270300 VRB03KT P6SM SKC
      TEMPO 2708/2711 5SM BR
     FM271400 03004KT P6SM SKC=



000
FTUS44 KHGX 261725
TAFSGR
TAF
KSGR 261725Z 2618/2718 09009KT P6SM FEW080
     FM270300 VRB03KT P6SM SKC
     FM271700 08005KT P6SM SKC=



000
FTUS44 KHGX 261725
TAFCLL
TAF
KCLL 261725Z 2618/2718 09005KT P6SM SCT050 SCT070
     FM270300 VRB02KT P6SM SKC
      TEMPO 2710/2713 5SM BR=



000
FTUS44 KHGX 261725
TAFCXO
TAF
KCXO 261725Z 2618/2718 09007KT P6SM SKC
     FM270300 VRB02KT P6SM SKC
      TEMPO 2710/2713 5SM BR=



000
FTUS44 KHGX 261725
TAFIAH
TAF
KIAH 261725Z 2618/2724 07009KT P6SM FEW070 SCT250
     FM270300 VRB03KT P6SM SKC
     FM271700 08005KT P6SM SKC=



000
FTUS44 KHGX 261725
TAFSGR
TAF
KSGR 261725Z 2618/2718 09009KT P6SM FEW080
     FM270300 VRB03KT P6SM SKC
     FM271700 08005KT P6SM SKC=



000
FTUS44 KHGX 261725
TAFCXO
TAF
KCXO 261725Z 2618/2718 09007KT P6SM SKC
     FM270300 VRB02KT P6SM SKC
      TEMPO 2710/2713 5SM BR=



000
FTUS44 KHGX 261725
TAFUTS
TAF
KUTS 261725Z 2618/2718 08004KT P6SM FEW035
     FM270100 00000KT P6SM SKC=



000
FTUS44 KHGX 261725
TAFIAH
TAF
KIAH 261725Z 2618/2724 07009KT P6SM FEW070 SCT250
     FM270300 VRB03KT P6SM SKC
     FM271700 08005KT P6SM SKC=



000
FTUS44 KHGX 261725
TAFHOU
TAF
KHOU 261725Z 2618/2718 07010KT P6SM FEW060 SCT250
     FM270300 VRB03KT P6SM SKC
     FM271700 08005KT P6SM SKC=



000
FTUS44 KHGX 261725
TAFSGR
TAF
KSGR 261725Z 2618/2718 09009KT P6SM FEW080
     FM270300 VRB03KT P6SM SKC
     FM271700 08005KT P6SM SKC=



000
FTUS44 KHGX 261725
TAFCLL
TAF
KCLL 261725Z 2618/2718 09005KT P6SM SCT050 SCT070
     FM270300 VRB02KT P6SM SKC
      TEMPO 2710/2713 5SM BR=



000
FTUS44 KHGX 261725
TAFHOU
TAF
KHOU 261725Z 2618/2718 07010KT P6SM FEW060 SCT250
     FM270300 VRB03KT P6SM SKC
     FM271700 08005KT P6SM SKC=



000
FTUS44 KHGX 261603 AAA
TAFGLS
TAF AMD
KGLS 261603Z 2616/2712 07014KT P6SM SKC
     FM270000 12008KT P6SM SCT250
     FM270400 VRB04KT P6SM SKC=



000
FTUS44 KHGX 261603 AAA
TAFGLS
TAF AMD
KGLS 261603Z 2616/2712 07014KT P6SM SKC
     FM270000 12008KT P6SM SCT250
     FM270400 VRB04KT P6SM SKC=



000
FTUS44 KHGX 261603 AAA
TAFGLS
TAF AMD
KGLS 261603Z 2616/2712 07014KT P6SM SKC
     FM270000 12008KT P6SM SCT250
     FM270400 VRB04KT P6SM SKC=



000
FTUS44 KHGX 261603 AAA
TAFGLS
TAF AMD
KGLS 261603Z 2616/2712 07014KT P6SM SKC
     FM270000 12008KT P6SM SCT250
     FM270400 VRB04KT P6SM SKC=



000
FTUS44 KHGX 261515 AAA
TAFSGR
TAF AMD
KSGR 261515Z 2615/2712 08007KT P6SM FEW080
     FM270000 11006KT P6SM FEW250
     FM270300 VRB02KT P6SM SKC=



000
FTUS44 KHGX 261515 AAA
TAFSGR
TAF AMD
KSGR 261515Z 2615/2712 08007KT P6SM FEW080
     FM270000 11006KT P6SM FEW250
     FM270300 VRB02KT P6SM SKC=



000
FTUS44 KHGX 261509 AAA
TAFHOU
TAF AMD
KHOU 261509Z 2615/2712 07011KT P6SM SCT060
     FM270000 10005KT P6SM SKC
     FM270300 VRB02KT P6SM SKC=



000
FTUS44 KHGX 261509 AAA
TAFHOU
TAF AMD
KHOU 261509Z 2615/2712 07011KT P6SM SCT060
     FM270000 10005KT P6SM SKC
     FM270300 VRB02KT P6SM SKC=



000
FTUS44 KHGX 261509 AAA
TAFHOU
TAF AMD
KHOU 261509Z 2615/2712 07011KT P6SM SCT060
     FM270000 10005KT P6SM SKC
     FM270300 VRB02KT P6SM SKC=



000
FTUS44 KHGX 261508 AAA
TAFIAH
TAF AMD
KIAH 261508Z 2615/2718 07007KT P6SM FEW060 SCT250
     FM270000 10005KT P6SM SKC
     FM270300 VRB03KT P6SM SKC=



000
FTUS44 KHGX 261508 AAA
TAFIAH
TAF AMD
KIAH 261508Z 2615/2718 07007KT P6SM FEW060 SCT250
     FM270000 10005KT P6SM SKC
     FM270300 VRB03KT P6SM SKC=



000
FTUS44 KHGX 261322 AAA
TAFLBX
TAF AMD
KLBX 261322Z 2613/2712 04007KT P6SM SCT070
     FM262100 07009KT P6SM SKC
     FM270000 12007KT P6SM SKC
     FM270300 VRB03KT P6SM SKC=



000
FTUS44 KHGX 261322 AAA
TAFLBX
TAF AMD
KLBX 261322Z 2613/2712 04007KT P6SM SCT070
     FM262100 07009KT P6SM SKC
     FM270000 12007KT P6SM SKC
     FM270300 VRB03KT P6SM SKC=



000
FTUS44 KHGX 261322 AAA
TAFLBX
TAF AMD
KLBX 261322Z 2613/2712 04007KT P6SM SCT070
     FM262100 07009KT P6SM SKC
     FM270000 12007KT P6SM SKC
     FM270300 VRB03KT P6SM SKC=



000
FTUS44 KHGX 261322 AAA
TAFLBX
TAF AMD
KLBX 261322Z 2613/2712 04007KT P6SM SCT070
     FM262100 07009KT P6SM SKC
     FM270000 12007KT P6SM SKC
     FM270300 VRB03KT P6SM SKC=



000
FTUS44 KHGX 261122
TAFLBX
TAF
KLBX 261122Z 2612/2712 02006KT P6SM SCT060
      TEMPO 2612/2613 5SM BR
     FM261400 04008KT P6SM SCT060
     FM262100 07009KT P6SM SKC
     FM270000 12007KT P6SM SKC
     FM270300 VRB03KT P6SM SKC=



000
FTUS44 KHGX 261122
TAFGLS
TAF
KGLS 261122Z 2612/2712 04012KT P6SM SCT060
     FM262000 07010KT P6SM FEW060
     FM270000 12008KT P6SM SCT250
     FM270400 VRB04KT P6SM SKC=



000
FTUS44 KHGX 261122
TAFSGR
TAF
KSGR 261122Z 2612/2712 02006KT P6SM SCT060
     FM261400 06007KT P6SM SCT060
     FM261800 06010KT P6SM FEW060
     FM270000 11006KT P6SM FEW250
     FM270300 VRB02KT P6SM SKC=



000
FTUS44 KHGX 261122
TAFHOU
TAF
KHOU 261122Z 2612/2712 02005KT P6SM SCT060 SCT250
     FM261400 06007KT P6SM SCT060
     FM261800 06010KT P6SM FEW060
     FM270000 10005KT P6SM SKC
     FM270300 VRB02KT P6SM SKC=



000
FTUS44 KHGX 261122
TAFCXO
TAF
KCXO 261122Z 2612/2712 05005KT P6SM SCT060
     FM261800 05005KT P6SM FEW060
     FM270300 VRB02KT P6SM SKC=



000
FTUS44 KHGX 261122
TAFCXO
TAF
KCXO 261122Z 2612/2712 05005KT P6SM SCT060
     FM261800 05005KT P6SM FEW060
     FM270300 VRB02KT P6SM SKC=



000
FTUS44 KHGX 261122
TAFUTS
TAF
KUTS 261122Z 2612/2712 VRB04KT P6SM SCT060
     FM261800 04002KT P6SM FEW060
     FM270100 00000KT P6SM SKC=



000
FTUS44 KHGX 261122
TAFIAH
TAF
KIAH 261122Z 2612/2718 03004KT P6SM SCT060 SCT250
     FM261400 06007KT P6SM SCT060
     FM261800 06010KT P6SM FEW060
     FM270000 10005KT P6SM SKC
     FM270300 VRB03KT P6SM SKC=



000
FTUS44 KHGX 261122
TAFCLL
TAF
KCLL 261122Z 2612/2712 05006KT P6SM SCT060
     FM262100 04006KT P6SM SKC
     FM270300 VRB02KT P6SM SKC=



000
FTUS44 KHGX 261122
TAFHOU
TAF
KHOU 261122Z 2612/2712 02005KT P6SM SCT060 SCT250
     FM261400 06007KT P6SM SCT060
     FM261800 06010KT P6SM FEW060
     FM270000 10005KT P6SM SKC
     FM270300 VRB02KT P6SM SKC=



000
FTUS44 KHGX 261122
TAFSGR
TAF
KSGR 261122Z 2612/2712 02006KT P6SM SCT060
     FM261400 06007KT P6SM SCT060
     FM261800 06010KT P6SM FEW060
     FM270000 11006KT P6SM FEW250
     FM270300 VRB02KT P6SM SKC=



000
FTUS44 KHGX 261122
TAFGLS
TAF
KGLS 261122Z 2612/2712 04012KT P6SM SCT060
     FM262000 07010KT P6SM FEW060
     FM270000 12008KT P6SM SCT250
     FM270400 VRB04KT P6SM SKC=



000
FTUS44 KHGX 261122
TAFSGR
TAF
KSGR 261122Z 2612/2712 02006KT P6SM SCT060
     FM261400 06007KT P6SM SCT060
     FM261800 06010KT P6SM FEW060
     FM270000 11006KT P6SM FEW250
     FM270300 VRB02KT P6SM SKC=



000
FTUS44 KHGX 261122
TAFUTS
TAF
KUTS 261122Z 2612/2712 VRB04KT P6SM SCT060
     FM261800 04002KT P6SM FEW060
     FM270100 00000KT P6SM SKC=



000
FTUS44 KHGX 261122
TAFCLL
TAF
KCLL 261122Z 2612/2712 05006KT P6SM SCT060
     FM262100 04006KT P6SM SKC
     FM270300 VRB02KT P6SM SKC=



000
FTUS44 KHGX 261122
TAFGLS
TAF
KGLS 261122Z 2612/2712 04012KT P6SM SCT060
     FM262000 07010KT P6SM FEW060
     FM270000 12008KT P6SM SCT250
     FM270400 VRB04KT P6SM SKC=



000
FTUS44 KHGX 261122
TAFLBX
TAF
KLBX 261122Z 2612/2712 02006KT P6SM SCT060
      TEMPO 2612/2613 5SM BR
     FM261400 04008KT P6SM SCT060
     FM262100 07009KT P6SM SKC
     FM270000 12007KT P6SM SKC
     FM270300 VRB03KT P6SM SKC=



000
FTUS44 KHGX 261122
TAFIAH
TAF
KIAH 261122Z 2612/2718 03004KT P6SM SCT060 SCT250
     FM261400 06007KT P6SM SCT060
     FM261800 06010KT P6SM FEW060
     FM270000 10005KT P6SM SKC
     FM270300 VRB03KT P6SM SKC=



000
FTUS44 KHGX 261122
TAFHOU
TAF
KHOU 261122Z 2612/2712 02005KT P6SM SCT060 SCT250
     FM261400 06007KT P6SM SCT060
     FM261800 06010KT P6SM FEW060
     FM270000 10005KT P6SM SKC
     FM270300 VRB02KT P6SM SKC=



000
FTUS44 KHGX 261122
TAFLBX
TAF
KLBX 261122Z 2612/2712 02006KT P6SM SCT060
      TEMPO 2612/2613 5SM BR
     FM261400 04008KT P6SM SCT060
     FM262100 07009KT P6SM SKC
     FM270000 12007KT P6SM SKC
     FM270300 VRB03KT P6SM SKC=



000
FTUS44 KHGX 261122
TAFCXO
TAF
KCXO 261122Z 2612/2712 05005KT P6SM SCT060
     FM261800 05005KT P6SM FEW060
     FM270300 VRB02KT P6SM SKC=



000
FTUS44 KHGX 261122
TAFCXO
TAF
KCXO 261122Z 2612/2712 05005KT P6SM SCT060
     FM261800 05005KT P6SM FEW060
     FM270300 VRB02KT P6SM SKC=



000
FTUS44 KHGX 261122
TAFCLL
TAF
KCLL 261122Z 2612/2712 05006KT P6SM SCT060
     FM262100 04006KT P6SM SKC
     FM270300 VRB02KT P6SM SKC=



000
FTUS44 KHGX 261122
TAFUTS
TAF
KUTS 261122Z 2612/2712 VRB04KT P6SM SCT060
     FM261800 04002KT P6SM FEW060
     FM270100 00000KT P6SM SKC=



000
FTUS44 KHGX 261122
TAFSGR
TAF
KSGR 261122Z 2612/2712 02006KT P6SM SCT060
     FM261400 06007KT P6SM SCT060
     FM261800 06010KT P6SM FEW060
     FM270000 11006KT P6SM FEW250
     FM270300 VRB02KT P6SM SKC=



000
FTUS44 KHGX 261122
TAFCLL
TAF
KCLL 261122Z 2612/2712 05006KT P6SM SCT060
     FM262100 04006KT P6SM SKC
     FM270300 VRB02KT P6SM SKC=



000
FTUS44 KHGX 261122
TAFIAH
TAF
KIAH 261122Z 2612/2718 03004KT P6SM SCT060 SCT250
     FM261400 06007KT P6SM SCT060
     FM261800 06010KT P6SM FEW060
     FM270000 10005KT P6SM SKC
     FM270300 VRB03KT P6SM SKC=



000
FTUS44 KHGX 261122
TAFUTS
TAF
KUTS 261122Z 2612/2712 VRB04KT P6SM SCT060
     FM261800 04002KT P6SM FEW060
     FM270100 00000KT P6SM SKC=



000
FTUS44 KHGX 261122
TAFHOU
TAF
KHOU 261122Z 2612/2712 02005KT P6SM SCT060 SCT250
     FM261400 06007KT P6SM SCT060
     FM261800 06010KT P6SM FEW060
     FM270000 10005KT P6SM SKC
     FM270300 VRB02KT P6SM SKC=



000
FTUS44 KHGX 261122
TAFGLS
TAF
KGLS 261122Z 2612/2712 04012KT P6SM SCT060
     FM262000 07010KT P6SM FEW060
     FM270000 12008KT P6SM SCT250
     FM270400 VRB04KT P6SM SKC=



000
FTUS44 KHGX 261122
TAFIAH
TAF
KIAH 261122Z 2612/2718 03004KT P6SM SCT060 SCT250
     FM261400 06007KT P6SM SCT060
     FM261800 06010KT P6SM FEW060
     FM270000 10005KT P6SM SKC
     FM270300 VRB03KT P6SM SKC=



000
FTUS44 KHGX 261122
TAFLBX
TAF
KLBX 261122Z 2612/2712 02006KT P6SM SCT060
      TEMPO 2612/2613 5SM BR
     FM261400 04008KT P6SM SCT060
     FM262100 07009KT P6SM SKC
     FM270000 12007KT P6SM SKC
     FM270300 VRB03KT P6SM SKC=



000
FTUS44 KHGX 261031 AAA
TAFLBX
TAF AMD
KLBX 261031Z 2611/2706 03005KT P6SM SCT080 SCT100 BKN120
     FM261400 04008KT P6SM SCT060
     FM262100 07009KT P6SM SKC
     FM270000 12007KT P6SM SKC
     FM270300 VRB03KT P6SM SKC=



000
FTUS44 KHGX 261031 AAA
TAFLBX
TAF AMD
KLBX 261031Z 2611/2706 03005KT P6SM SCT080 SCT100 BKN120
     FM261400 04008KT P6SM SCT060
     FM262100 07009KT P6SM SKC
     FM270000 12007KT P6SM SKC
     FM270300 VRB03KT P6SM SKC=



000
FTUS44 KHGX 261031 AAA
TAFLBX
TAF AMD
KLBX 261031Z 2611/2706 03005KT P6SM SCT080 SCT100 BKN120
     FM261400 04008KT P6SM SCT060
     FM262100 07009KT P6SM SKC
     FM270000 12007KT P6SM SKC
     FM270300 VRB03KT P6SM SKC=



000
FTUS44 KHGX 261031 AAA
TAFLBX
TAF AMD
KLBX 261031Z 2611/2706 03005KT P6SM SCT080 SCT100 BKN120
     FM261400 04008KT P6SM SCT060
     FM262100 07009KT P6SM SKC
     FM270000 12007KT P6SM SKC
     FM270300 VRB03KT P6SM SKC=



000
FTUS44 KHGX 261028 AAA
TAFUTS
TAF AMD
KUTS 261028Z 2610/2706 00000KT P6SM BKN070
     FM261800 04002KT P6SM FEW050
     FM270100 00000KT P6SM SKC=



000
FTUS44 KHGX 261028 AAA
TAFUTS
TAF AMD
KUTS 261028Z 2610/2706 00000KT P6SM BKN070
     FM261800 04002KT P6SM FEW050
     FM270100 00000KT P6SM SKC=



000
FTUS44 KHGX 261026 AAA
TAFCLL
TAF AMD
KCLL 261026Z 2610/2706 07005KT P6SM FEW070
     FM262100 04006KT P6SM SKC
     FM270300 VRB02KT P6SM SKC=



000
FTUS44 KHGX 261026 AAA
TAFCLL
TAF AMD
KCLL 261026Z 2610/2706 07005KT P6SM FEW070
     FM262100 04006KT P6SM SKC
     FM270300 VRB02KT P6SM SKC=



000
FTUS44 KHGX 260912 AAA
TAFCXO
TAF AMD
KCXO 260912Z 2609/2706 00000KT 6SM BR SCT070
     FM261400 05005KT P6SM SCT050
     FM261800 05005KT P6SM FEW050
     FM270300 VRB02KT P6SM SKC=



000
FTUS44 KHGX 260912 AAA
TAFCXO
TAF AMD
KCXO 260912Z 2609/2706 00000KT 6SM BR SCT070
     FM261400 05005KT P6SM SCT050
     FM261800 05005KT P6SM FEW050
     FM270300 VRB02KT P6SM SKC=



000
FTUS44 KHGX 260911 AAA
TAFHOU
TAF AMD
KHOU 260911Z 2609/2706 36003KT P6SM FEW150 SCT250
     FM261400 06007KT P6SM SCT050
     FM261800 06010KT P6SM FEW050
     FM270000 10005KT P6SM SKC
     FM270300 VRB02KT P6SM SKC=



000
FTUS44 KHGX 260911 AAA
TAFHOU
TAF AMD
KHOU 260911Z 2609/2706 36003KT P6SM FEW150 SCT250
     FM261400 06007KT P6SM SCT050
     FM261800 06010KT P6SM FEW050
     FM270000 10005KT P6SM SKC
     FM270300 VRB02KT P6SM SKC=



000
FTUS44 KHGX 260911 AAA
TAFIAH
TAF AMD
KIAH 260911Z 2609/2712 35004KT P6SM FEW070 SCT130 SCT250
     FM261400 06007KT P6SM SCT050
     FM261800 06010KT P6SM FEW050
     FM270000 10005KT P6SM SKC
     FM270300 VRB02KT P6SM SKC=



000
FTUS44 KHGX 260911 AAA
TAFHOU
TAF AMD
KHOU 260911Z 2609/2706 36003KT P6SM FEW150 SCT250
     FM261400 06007KT P6SM SCT050
     FM261800 06010KT P6SM FEW050
     FM270000 10005KT P6SM SKC
     FM270300 VRB02KT P6SM SKC=



000
FTUS44 KHGX 260911 AAA
TAFIAH
TAF AMD
KIAH 260911Z 2609/2712 35004KT P6SM FEW070 SCT130 SCT250
     FM261400 06007KT P6SM SCT050
     FM261800 06010KT P6SM FEW050
     FM270000 10005KT P6SM SKC
     FM270300 VRB02KT P6SM SKC=



000
FTUS44 KHGX 260911 AAA
TAFIAH
TAF AMD
KIAH 260911Z 2609/2712 35004KT P6SM FEW070 SCT130 SCT250
     FM261400 06007KT P6SM SCT050
     FM261800 06010KT P6SM FEW050
     FM270000 10005KT P6SM SKC
     FM270300 VRB02KT P6SM SKC=



000
FTUS44 KHGX 260528
TAFCLL
TAF
KCLL 260528Z 2606/2706 16003KT P6SM SKC
     FM261000 VRB02KT 4SM BR SCT045
     FM261400 09007KT P6SM SCT045
     FM261800 06006KT P6SM SKC
     FM270300 09004KT P6SM SKC=



000
FTUS44 KHGX 260528
TAFUTS
TAF
KUTS 260528Z 2606/2706 00000KT P6SM FEW045
      TEMPO 2607/2611 5SM BR
     FM261800 VRB05KT P6SM SKC=



000
FTUS44 KHGX 260528
TAFCLL
TAF
KCLL 260528Z 2606/2706 16003KT P6SM SKC
     FM261000 VRB02KT 4SM BR SCT045
     FM261400 09007KT P6SM SCT045
     FM261800 06006KT P6SM SKC
     FM270300 09004KT P6SM SKC=



000
FTUS44 KHGX 260528
TAFCXO
TAF
KCXO 260528Z 2606/2706 31003KT 4SM BR FEW040
     FM261400 05005KT P6SM SCT040
     FM261800 05005KT P6SM SKC=



000
FTUS44 KHGX 260528
TAFUTS
TAF
KUTS 260528Z 2606/2706 00000KT P6SM FEW045
      TEMPO 2607/2611 5SM BR
     FM261800 VRB05KT P6SM SKC=



000
FTUS44 KHGX 260528
TAFCLL
TAF
KCLL 260528Z 2606/2706 16003KT P6SM SKC
     FM261000 VRB02KT 4SM BR SCT045
     FM261400 09007KT P6SM SCT045
     FM261800 06006KT P6SM SKC
     FM270300 09004KT P6SM SKC=



000
FTUS44 KHGX 260528
TAFCLL
TAF
KCLL 260528Z 2606/2706 16003KT P6SM SKC
     FM261000 VRB02KT 4SM BR SCT045
     FM261400 09007KT P6SM SCT045
     FM261800 06006KT P6SM SKC
     FM270300 09004KT P6SM SKC=



000
FTUS44 KHGX 260528
TAFCXO
TAF
KCXO 260528Z 2606/2706 31003KT 4SM BR FEW040
     FM261400 05005KT P6SM SCT040
     FM261800 05005KT P6SM SKC=



000
FTUS44 KHGX 260528
TAFCXO
TAF
KCXO 260528Z 2606/2706 31003KT 4SM BR FEW040
     FM261400 05005KT P6SM SCT040
     FM261800 05005KT P6SM SKC=



000
FTUS44 KHGX 260528
TAFIAH
TAF
KIAH 260528Z 2606/2712 00000KT P6SM FEW170 SCT250
     FM260800 02003KT 6SM BR SCT250
     FM261400 05005KT P6SM SCT045
     FM261900 06010KT P6SM FEW045
     FM270000 10005KT P6SM SKC
     FM270300 VRB02KT P6SM SKC=



000
FTUS44 KHGX 260528
TAFCXO
TAF
KCXO 260528Z 2606/2706 31003KT 4SM BR FEW040
     FM261400 05005KT P6SM SCT040
     FM261800 05005KT P6SM SKC=



000
FTUS44 KHGX 260528
TAFUTS
TAF
KUTS 260528Z 2606/2706 00000KT P6SM FEW045
      TEMPO 2607/2611 5SM BR
     FM261800 VRB05KT P6SM SKC=



000
FTUS44 KHGX 260528
TAFHOU
TAF
KHOU 260528Z 2606/2706 32003KT P6SM FEW015 SCT190 BKN250
     FM261400 06007KT P6SM SCT040
     FM261800 06010KT P6SM FEW045
     FM270000 11006KT P6SM FEW250
     FM270300 VRB02KT P6SM SKC=



000
FTUS44 KHGX 260528
TAFIAH
TAF
KIAH 260528Z 2606/2712 00000KT P6SM FEW170 SCT250
     FM260800 02003KT 6SM BR SCT250
     FM261400 05005KT P6SM SCT045
     FM261900 06010KT P6SM FEW045
     FM270000 10005KT P6SM SKC
     FM270300 VRB02KT P6SM SKC=



000
FTUS44 KHGX 260528
TAFHOU
TAF
KHOU 260528Z 2606/2706 32003KT P6SM FEW015 SCT190 BKN250
     FM261400 06007KT P6SM SCT040
     FM261800 06010KT P6SM FEW045
     FM270000 11006KT P6SM FEW250
     FM270300 VRB02KT P6SM SKC=



000
FTUS44 KHGX 260528
TAFSGR
TAF
KSGR 260528Z 2606/2706 00000KT P6SM FEW015 SCT190 BKN250
     FM261400 06007KT P6SM SCT040
     FM261800 06010KT P6SM FEW045
     FM270000 11006KT P6SM FEW250
     FM270300 VRB02KT P6SM SKC=



000
FTUS44 KHGX 260528
TAFIAH
TAF
KIAH 260528Z 2606/2712 00000KT P6SM FEW170 SCT250
     FM260800 02003KT 6SM BR SCT250
     FM261400 05005KT P6SM SCT045
     FM261900 06010KT P6SM FEW045
     FM270000 10005KT P6SM SKC
     FM270300 VRB02KT P6SM SKC=



000
FTUS44 KHGX 260528
TAFSGR
TAF
KSGR 260528Z 2606/2706 00000KT P6SM FEW015 SCT190 BKN250
     FM261400 06007KT P6SM SCT040
     FM261800 06010KT P6SM FEW045
     FM270000 11006KT P6SM FEW250
     FM270300 VRB02KT P6SM SKC=



000
FTUS44 KHGX 260528
TAFSGR
TAF
KSGR 260528Z 2606/2706 00000KT P6SM FEW015 SCT190 BKN250
     FM261400 06007KT P6SM SCT040
     FM261800 06010KT P6SM FEW045
     FM270000 11006KT P6SM FEW250
     FM270300 VRB02KT P6SM SKC=



000
FTUS44 KHGX 260528
TAFSGR
TAF
KSGR 260528Z 2606/2706 00000KT P6SM FEW015 SCT190 BKN250
     FM261400 06007KT P6SM SCT040
     FM261800 06010KT P6SM FEW045
     FM270000 11006KT P6SM FEW250
     FM270300 VRB02KT P6SM SKC=



000
FTUS44 KHGX 260528
TAFIAH
TAF
KIAH 260528Z 2606/2712 00000KT P6SM FEW170 SCT250
     FM260800 02003KT 6SM BR SCT250
     FM261400 05005KT P6SM SCT045
     FM261900 06010KT P6SM FEW045
     FM270000 10005KT P6SM SKC
     FM270300 VRB02KT P6SM SKC=



000
FTUS44 KHGX 260528
TAFHOU
TAF
KHOU 260528Z 2606/2706 32003KT P6SM FEW015 SCT190 BKN250
     FM261400 06007KT P6SM SCT040
     FM261800 06010KT P6SM FEW045
     FM270000 11006KT P6SM FEW250
     FM270300 VRB02KT P6SM SKC=



000
FTUS44 KHGX 260528
TAFGLS
TAF
KGLS 260528Z 2606/2706 05004KT P6SM SCT040 SCT250
     FM261100 04010KT P6SM SCT050
     FM262000 07010KT P6SM FEW050
     FM270000 12008KT P6SM SCT250
     FM270400 VRB02KT P6SM SKC=



000
FTUS44 KHGX 260528
TAFLBX
TAF
KLBX 260528Z 2606/2706 36004KT 6SM BR SCT250
     FM260900 02004KT 3SM BR SCT250
     FM261400 04006KT P6SM SCT050
     FM261900 07010KT P6SM SCT040
     FM270000 13006KT P6SM SCT250
     FM270300 00000KT P6SM SKC=



000
FTUS44 KHGX 260528
TAFLBX
TAF
KLBX 260528Z 2606/2706 36004KT 6SM BR SCT250
     FM260900 02004KT 3SM BR SCT250
     FM261400 04006KT P6SM SCT050
     FM261900 07010KT P6SM SCT040
     FM270000 13006KT P6SM SCT250
     FM270300 00000KT P6SM SKC=



000
FTUS44 KHGX 260528
TAFGLS
TAF
KGLS 260528Z 2606/2706 05004KT P6SM SCT040 SCT250
     FM261100 04010KT P6SM SCT050
     FM262000 07010KT P6SM FEW050
     FM270000 12008KT P6SM SCT250
     FM270400 VRB02KT P6SM SKC=



000
FTUS44 KHGX 260528
TAFGLS
TAF
KGLS 260528Z 2606/2706 05004KT P6SM SCT040 SCT250
     FM261100 04010KT P6SM SCT050
     FM262000 07010KT P6SM FEW050
     FM270000 12008KT P6SM SCT250
     FM270400 VRB02KT P6SM SKC=



000
FTUS44 KHGX 260528
TAFLBX
TAF
KLBX 260528Z 2606/2706 36004KT 6SM BR SCT250
     FM260900 02004KT 3SM BR SCT250
     FM261400 04006KT P6SM SCT050
     FM261900 07010KT P6SM SCT040
     FM270000 13006KT P6SM SCT250
     FM270300 00000KT P6SM SKC=



000
FTUS44 KHGX 260528
TAFGLS
TAF
KGLS 260528Z 2606/2706 05004KT P6SM SCT040 SCT250
     FM261100 04010KT P6SM SCT050
     FM262000 07010KT P6SM FEW050
     FM270000 12008KT P6SM SCT250
     FM270400 VRB02KT P6SM SKC=



000
FTUS44 KHGX 260528
TAFHOU
TAF
KHOU 260528Z 2606/2706 32003KT P6SM FEW015 SCT190 BKN250
     FM261400 06007KT P6SM SCT040
     FM261800 06010KT P6SM FEW045
     FM270000 11006KT P6SM FEW250
     FM270300 VRB02KT P6SM SKC=



000
FTUS44 KHGX 260528
TAFLBX
TAF
KLBX 260528Z 2606/2706 36004KT 6SM BR SCT250
     FM260900 02004KT 3SM BR SCT250
     FM261400 04006KT P6SM SCT050
     FM261900 07010KT P6SM SCT040
     FM270000 13006KT P6SM SCT250
     FM270300 00000KT P6SM SKC=



000
FTUS44 KHGX 260528
TAFUTS
TAF
KUTS 260528Z 2606/2706 00000KT P6SM FEW045
      TEMPO 2607/2611 5SM BR
     FM261800 VRB05KT P6SM SKC=



000
FTUS44 KHGX 260307 AAB
TAFHOU
TAF AMD
KHOU 260307Z 2603/2624 VRB03KT P6SM FEW025 BKN150 BKN250
     FM261400 06007KT P6SM SCT040
     FM261800 06012KT P6SM FEW045=



000
FTUS44 KHGX 260307 AAB
TAFHOU
TAF AMD
KHOU 260307Z 2603/2624 VRB03KT P6SM FEW025 BKN150 BKN250
     FM261400 06007KT P6SM SCT040
     FM261800 06012KT P6SM FEW045=



000
FTUS44 KHGX 260307 AAB
TAFLBX
TAF AMD
KLBX 260307Z 2603/2624 00000KT P6SM MIFG BKN250
     FM260600 VRB02KT 6SM BR SCT250
     FM261400 04006KT P6SM SCT050
     FM261900 08012KT P6SM SCT040=



000
FTUS44 KHGX 260307 AAB
TAFHOU
TAF AMD
KHOU 260307Z 2603/2624 VRB03KT P6SM FEW025 BKN150 BKN250
     FM261400 06007KT P6SM SCT040
     FM261800 06012KT P6SM FEW045=



000
FTUS44 KHGX 260307 AAB
TAFLBX
TAF AMD
KLBX 260307Z 2603/2624 00000KT P6SM MIFG BKN250
     FM260600 VRB02KT 6SM BR SCT250
     FM261400 04006KT P6SM SCT050
     FM261900 08012KT P6SM SCT040=



000
FTUS44 KHGX 260307 AAB
TAFLBX
TAF AMD
KLBX 260307Z 2603/2624 00000KT P6SM MIFG BKN250
     FM260600 VRB02KT 6SM BR SCT250
     FM261400 04006KT P6SM SCT050
     FM261900 08012KT P6SM SCT040=



000
FTUS44 KHGX 260307 AAB
TAFLBX
TAF AMD
KLBX 260307Z 2603/2624 00000KT P6SM MIFG BKN250
     FM260600 VRB02KT 6SM BR SCT250
     FM261400 04006KT P6SM SCT050
     FM261900 08012KT P6SM SCT040=



000
FTUS44 KHGX 260306 AAA
TAFIAH
TAF AMD
KIAH 260306Z 2603/2706 VRB03KT P6SM SCT150 BKN250
     FM261400 05005KT P6SM SCT040=



000
FTUS44 KHGX 260306 AAA
TAFIAH
TAF AMD
KIAH 260306Z 2603/2706 VRB03KT P6SM SCT150 BKN250
     FM261400 05005KT P6SM SCT040=



000
FTUS44 KHGX 260306 AAA
TAFIAH
TAF AMD
KIAH 260306Z 2603/2706 VRB03KT P6SM SCT150 BKN250
     FM261400 05005KT P6SM SCT040=



000
FTUS44 KHGX 260216 AAA
TAFLBX
TAF AMD
KLBX 260216Z 2602/2624 VRB03KT 5SM BR SCT250
     FM261400 04006KT P6SM SCT050
     FM261900 08012KT P6SM SCT040=



000
FTUS44 KHGX 260216 AAA
TAFLBX
TAF AMD
KLBX 260216Z 2602/2624 VRB03KT 5SM BR SCT250
     FM261400 04006KT P6SM SCT050
     FM261900 08012KT P6SM SCT040=



000
FTUS44 KHGX 260216 AAA
TAFLBX
TAF AMD
KLBX 260216Z 2602/2624 VRB03KT 5SM BR SCT250
     FM261400 04006KT P6SM SCT050
     FM261900 08012KT P6SM SCT040=



000
FTUS44 KHGX 260115 AAA
TAFHOU
TAF AMD
KHOU 260115Z 2601/2624 VRB03KT P6SM VCSH FEW050 SCT150 BKN250
     FM260200 VRB02KT P6SM BKN250
     FM261400 06007KT P6SM SCT040
     FM261800 06012KT P6SM FEW045=



000
FTUS44 KHGX 260115 AAA
TAFHOU
TAF AMD
KHOU 260115Z 2601/2624 VRB03KT P6SM VCSH FEW050 SCT150 BKN250
     FM260200 VRB02KT P6SM BKN250
     FM261400 06007KT P6SM SCT040
     FM261800 06012KT P6SM FEW045=



000
FTUS44 KHGX 260115 AAA
TAFHOU
TAF AMD
KHOU 260115Z 2601/2624 VRB03KT P6SM VCSH FEW050 SCT150 BKN250
     FM260200 VRB02KT P6SM BKN250
     FM261400 06007KT P6SM SCT040
     FM261800 06012KT P6SM FEW045=



000
FTUS44 KHGX 260115 AAA
TAFHOU
TAF AMD
KHOU 260115Z 2601/2624 VRB03KT P6SM VCSH FEW050 SCT150 BKN250
     FM260200 VRB02KT P6SM BKN250
     FM261400 06007KT P6SM SCT040
     FM261800 06012KT P6SM FEW045=



000
FTUS44 KHGX 252320
TAFLBX
TAF
KLBX 252320Z 2600/2624 23005KT P6SM BKN100 BKN250
     FM260200 VRB02KT P6SM MIFG SCT250
     FM260600 VRB02KT 5SM BR SCT250
     FM261400 04006KT P6SM SCT050
     FM261900 08012KT P6SM SCT040=



000
FTUS44 KHGX 252320
TAFLBX
TAF
KLBX 252320Z 2600/2624 23005KT P6SM BKN100 BKN250
     FM260200 VRB02KT P6SM MIFG SCT250
     FM260600 VRB02KT 5SM BR SCT250
     FM261400 04006KT P6SM SCT050
     FM261900 08012KT P6SM SCT040=



000
FTUS44 KHGX 252320
TAFCXO
TAF
KCXO 252320Z 2600/2624 10004KT P6SM SKC
     FM260800 VRB02KT 6SM BR FEW050
     FM261400 05005KT P6SM SCT040=



000
FTUS44 KHGX 252320
TAFCLL
TAF
KCLL 252320Z 2600/2624 15007KT P6SM SKC
     FM260100 VRB03KT P6SM SCT250
     FM261000 VRB02KT 6SM BR FEW050
     FM261400 09007KT P6SM SCT045=



000
FTUS44 KHGX 252320
TAFSGR
TAF
KSGR 252320Z 2600/2624 VRB03KT P6SM BKN250
     FM261500 06007KT P6SM SCT040
     FM261800 07010KT P6SM FEW045=



000
FTUS44 KHGX 252320
TAFIAH
TAF
KIAH 252320Z 2600/2706 14009KT P6SM SCT110 BKN250
     FM261400 05005KT P6SM SCT040=



000
FTUS44 KHGX 252320
TAFGLS
TAF
KGLS 252320Z 2600/2624 16007KT P6SM VCSH FEW045 BKN100 BKN120
     FM260200 08006KT P6SM BKN250
     FM261100 04010KT P6SM BKN050
     FM262000 07010KT P6SM FEW050=



000
FTUS44 KHGX 252320
TAFSGR
TAF
KSGR 252320Z 2600/2624 VRB03KT P6SM BKN250
     FM261500 06007KT P6SM SCT040
     FM261800 07010KT P6SM FEW045=



000
FTUS44 KHGX 252320
TAFCXO
TAF
KCXO 252320Z 2600/2624 10004KT P6SM SKC
     FM260800 VRB02KT 6SM BR FEW050
     FM261400 05005KT P6SM SCT040=



000
FTUS44 KHGX 252320
TAFCLL
TAF
KCLL 252320Z 2600/2624 15007KT P6SM SKC
     FM260100 VRB03KT P6SM SCT250
     FM261000 VRB02KT 6SM BR FEW050
     FM261400 09007KT P6SM SCT045=



000
FTUS44 KHGX 252320
TAFIAH
TAF
KIAH 252320Z 2600/2706 14009KT P6SM SCT110 BKN250
     FM261400 05005KT P6SM SCT040=



000
FTUS44 KHGX 252320
TAFHOU
TAF
KHOU 252320Z 2600/2624 VRB02KT P6SM BKN250
     FM261400 06007KT P6SM SCT040
     FM261800 06012KT P6SM FEW045=



000
FTUS44 KHGX 252320
TAFGLS
TAF
KGLS 252320Z 2600/2624 16007KT P6SM VCSH FEW045 BKN100 BKN120
     FM260200 08006KT P6SM BKN250
     FM261100 04010KT P6SM BKN050
     FM262000 07010KT P6SM FEW050=



000
FTUS44 KHGX 252320
TAFUTS
TAF
KUTS 252320Z 2600/2624 VRB03KT P6SM FEW080
     FM261800 09006KT P6SM SCT045=



000
FTUS44 KHGX 252320
TAFIAH
TAF
KIAH 252320Z 2600/2706 14009KT P6SM SCT110 BKN250
     FM261400 05005KT P6SM SCT040=



000
FTUS44 KHGX 252320
TAFCLL
TAF
KCLL 252320Z 2600/2624 15007KT P6SM SKC
     FM260100 VRB03KT P6SM SCT250
     FM261000 VRB02KT 6SM BR FEW050
     FM261400 09007KT P6SM SCT045=



000
FTUS44 KHGX 252320
TAFLBX
TAF
KLBX 252320Z 2600/2624 23005KT P6SM BKN100 BKN250
     FM260200 VRB02KT P6SM MIFG SCT250
     FM260600 VRB02KT 5SM BR SCT250
     FM261400 04006KT P6SM SCT050
     FM261900 08012KT P6SM SCT040=



000
FTUS44 KHGX 252320
TAFHOU
TAF
KHOU 252320Z 2600/2624 VRB02KT P6SM BKN250
     FM261400 06007KT P6SM SCT040
     FM261800 06012KT P6SM FEW045=



000
FTUS44 KHGX 252320
TAFCXO
TAF
KCXO 252320Z 2600/2624 10004KT P6SM SKC
     FM260800 VRB02KT 6SM BR FEW050
     FM261400 05005KT P6SM SCT040=



000
FTUS44 KHGX 252320
TAFLBX
TAF
KLBX 252320Z 2600/2624 23005KT P6SM BKN100 BKN250
     FM260200 VRB02KT P6SM MIFG SCT250
     FM260600 VRB02KT 5SM BR SCT250
     FM261400 04006KT P6SM SCT050
     FM261900 08012KT P6SM SCT040=



000
FTUS44 KHGX 252320
TAFGLS
TAF
KGLS 252320Z 2600/2624 16007KT P6SM VCSH FEW045 BKN100 BKN120
     FM260200 08006KT P6SM BKN250
     FM261100 04010KT P6SM BKN050
     FM262000 07010KT P6SM FEW050=



000
FTUS44 KHGX 252320
TAFSGR
TAF
KSGR 252320Z 2600/2624 VRB03KT P6SM BKN250
     FM261500 06007KT P6SM SCT040
     FM261800 07010KT P6SM FEW045=



000
FTUS44 KHGX 252320
TAFSGR
TAF
KSGR 252320Z 2600/2624 VRB03KT P6SM BKN250
     FM261500 06007KT P6SM SCT040
     FM261800 07010KT P6SM FEW045=



000
FTUS44 KHGX 252320
TAFUTS
TAF
KUTS 252320Z 2600/2624 VRB03KT P6SM FEW080
     FM261800 09006KT P6SM SCT045=



000
FTUS44 KHGX 252320
TAFCLL
TAF
KCLL 252320Z 2600/2624 15007KT P6SM SKC
     FM260100 VRB03KT P6SM SCT250
     FM261000 VRB02KT 6SM BR FEW050
     FM261400 09007KT P6SM SCT045=



000
FTUS44 KHGX 252320
TAFIAH
TAF
KIAH 252320Z 2600/2706 14009KT P6SM SCT110 BKN250
     FM261400 05005KT P6SM SCT040=



000
FTUS44 KHGX 252320
TAFHOU
TAF
KHOU 252320Z 2600/2624 VRB02KT P6SM BKN250
     FM261400 06007KT P6SM SCT040
     FM261800 06012KT P6SM FEW045=



000
FTUS44 KHGX 252320
TAFUTS
TAF
KUTS 252320Z 2600/2624 VRB03KT P6SM FEW080
     FM261800 09006KT P6SM SCT045=



000
FTUS44 KHGX 252320
TAFHOU
TAF
KHOU 252320Z 2600/2624 VRB02KT P6SM BKN250
     FM261400 06007KT P6SM SCT040
     FM261800 06012KT P6SM FEW045=



000
FTUS44 KHGX 252320
TAFUTS
TAF
KUTS 252320Z 2600/2624 VRB03KT P6SM FEW080
     FM261800 09006KT P6SM SCT045=



000
FTUS44 KHGX 252320
TAFGLS
TAF
KGLS 252320Z 2600/2624 16007KT P6SM VCSH FEW045 BKN100 BKN120
     FM260200 08006KT P6SM BKN250
     FM261100 04010KT P6SM BKN050
     FM262000 07010KT P6SM FEW050=



000
FTUS44 KHGX 252320
TAFCXO
TAF
KCXO 252320Z 2600/2624 10004KT P6SM SKC
     FM260800 VRB02KT 6SM BR FEW050
     FM261400 05005KT P6SM SCT040=



000
FTUS44 KHGX 252215 AAD
TAFGLS
TAF AMD
KGLS 252215Z 2522/2618 12004KT P6SM -RA FEW110 BKN250
     FM252300 03008KT P6SM -RA BKN050 BKN250
     FM260100 04006KT P6SM SCT250
     FM261200 05010KT P6SM FEW050=



000
FTUS44 KHGX 252215 AAD
TAFGLS
TAF AMD
KGLS 252215Z 2522/2618 12004KT P6SM -RA FEW110 BKN250
     FM252300 03008KT P6SM -RA BKN050 BKN250
     FM260100 04006KT P6SM SCT250
     FM261200 05010KT P6SM FEW050=



000
FTUS44 KHGX 252215 AAD
TAFGLS
TAF AMD
KGLS 252215Z 2522/2618 12004KT P6SM -RA FEW110 BKN250
     FM252300 03008KT P6SM -RA BKN050 BKN250
     FM260100 04006KT P6SM SCT250
     FM261200 05010KT P6SM FEW050=



000
FTUS44 KHGX 252215 AAD
TAFGLS
TAF AMD
KGLS 252215Z 2522/2618 12004KT P6SM -RA FEW110 BKN250
     FM252300 03008KT P6SM -RA BKN050 BKN250
     FM260100 04006KT P6SM SCT250
     FM261200 05010KT P6SM FEW050=



000
FTUS44 KHGX 252201 AAC
TAFLBX
TAF AMD
KLBX 252201Z 2522/2618 14007KT P6SM VCTS SCT110CB BKN250
     FM252300 03008KT P6SM -RA BKN050 BKN250
     FM260100 VRB03KT P6SM SCT250
     FM261600 05008KT P6SM FEW050=



000
FTUS44 KHGX 252201 AAC
TAFLBX
TAF AMD
KLBX 252201Z 2522/2618 14007KT P6SM VCTS SCT110CB BKN250
     FM252300 03008KT P6SM -RA BKN050 BKN250
     FM260100 VRB03KT P6SM SCT250
     FM261600 05008KT P6SM FEW050=



000
FTUS44 KHGX 252201 AAC
TAFGLS
TAF AMD
KGLS 252201Z 2522/2618 15006KT 5SM -TSRA SCT110CB BKN250
     FM252300 03008KT P6SM -RA BKN050 BKN250
     FM260100 04006KT P6SM SCT250
     FM261200 05010KT P6SM FEW050=



000
FTUS44 KHGX 252201 AAC
TAFGLS
TAF AMD
KGLS 252201Z 2522/2618 15006KT 5SM -TSRA SCT110CB BKN250
     FM252300 03008KT P6SM -RA BKN050 BKN250
     FM260100 04006KT P6SM SCT250
     FM261200 05010KT P6SM FEW050=



000
FTUS44 KHGX 252159 AAC
TAFSGR
TAF AMD
KSGR 252159Z 2522/2618 15012KT P6SM FEW008 BKN250
     FM260000 VRB03KT P6SM SCT250
     FM261600 06008KT P6SM FEW050=



000
FTUS44 KHGX 252159 AAC
TAFSGR
TAF AMD
KSGR 252159Z 2522/2618 15012KT P6SM FEW008 BKN250
     FM260000 VRB03KT P6SM SCT250
     FM261600 06008KT P6SM FEW050=



000
FTUS44 KHGX 252158 AAE
TAFHOU
TAF AMD
KHOU 252158Z 2522/2618 17009KT P6SM -RA FEW010 SCT030 BKN250
     FM260000 VRB03KT P6SM SCT250
     FM261600 06008KT P6SM FEW050=



000
FTUS44 KHGX 252158 AAE
TAFHOU
TAF AMD
KHOU 252158Z 2522/2618 17009KT P6SM -RA FEW010 SCT030 BKN250
     FM260000 VRB03KT P6SM SCT250
     FM261600 06008KT P6SM FEW050=



000
FTUS44 KHGX 252102 AAC
TAFIAH
TAF AMD
KIAH 252102Z 2521/2624 06006KT P6SM BKN050 BKN250
     FM260200 VRB03KT P6SM SCT250
     FM261600 07008KT P6SM FEW050=



000
FTUS44 KHGX 252102 AAC
TAFIAH
TAF AMD
KIAH 252102Z 2521/2624 06006KT P6SM BKN050 BKN250
     FM260200 VRB03KT P6SM SCT250
     FM261600 07008KT P6SM FEW050=



000
FTUS44 KHGX 252102 AAD
TAFHOU
TAF AMD
KHOU 252102Z 2521/2618 12005KT P6SM -TSRA SCT030CB OVC120
     FM252200 06008KT P6SM BKN050 BKN250
     FM260200 VRB03KT P6SM SCT250
     FM261600 06008KT P6SM FEW050=



000
FTUS44 KHGX 252102 AAD
TAFHOU
TAF AMD
KHOU 252102Z 2521/2618 12005KT P6SM -TSRA SCT030CB OVC120
     FM252200 06008KT P6SM BKN050 BKN250
     FM260200 VRB03KT P6SM SCT250
     FM261600 06008KT P6SM FEW050=



000
FTUS44 KHGX 252008 AAB
TAFSGR
TAF AMD
KSGR 252008Z 2520/2618 07010KT 6SM -TSRA BKN050CB BKN250
      TEMPO 2520/2521 07010G20KT 3SM TSRA BKN035CB
     FM252100 06008KT P6SM BKN050 BKN250
     FM260200 VRB03KT P6SM SCT250
     FM261600 06008KT P6SM FEW050=



000
FTUS44 KHGX 252008 AAB
TAFSGR
TAF AMD
KSGR 252008Z 2520/2618 07010KT 6SM -TSRA BKN050CB BKN250
      TEMPO 2520/2521 07010G20KT 3SM TSRA BKN035CB
     FM252100 06008KT P6SM BKN050 BKN250
     FM260200 VRB03KT P6SM SCT250
     FM261600 06008KT P6SM FEW050=



000
FTUS44 KHGX 252008 AAB
TAFSGR
TAF AMD
KSGR 252008Z 2520/2618 07010KT 6SM -TSRA BKN050CB BKN250
      TEMPO 2520/2521 07010G20KT 3SM TSRA BKN035CB
     FM252100 06008KT P6SM BKN050 BKN250
     FM260200 VRB03KT P6SM SCT250
     FM261600 06008KT P6SM FEW050=



000
FTUS44 KHGX 252008 AAB
TAFSGR
TAF AMD
KSGR 252008Z 2520/2618 07010KT 6SM -TSRA BKN050CB BKN250
      TEMPO 2520/2521 07010G20KT 3SM TSRA BKN035CB
     FM252100 06008KT P6SM BKN050 BKN250
     FM260200 VRB03KT P6SM SCT250
     FM261600 06008KT P6SM FEW050=



000
FTUS44 KHGX 252006 AAA
TAFCXO
TAF AMD
KCXO 252006Z 2520/2618 VRB05KT P6SM SCT050 BKN250
     FM260200 VRB03KT P6SM SCT250
      TEMPO 2611/2613 4SM BR
     FM261600 07008KT P6SM FEW050=



000
FTUS44 KHGX 252006 AAA
TAFCXO
TAF AMD
KCXO 252006Z 2520/2618 VRB05KT P6SM SCT050 BKN250
     FM260200 VRB03KT P6SM SCT250
      TEMPO 2611/2613 4SM BR
     FM261600 07008KT P6SM FEW050=



000
FTUS44 KHGX 252006 AAA
TAFCXO
TAF AMD
KCXO 252006Z 2520/2618 VRB05KT P6SM SCT050 BKN250
     FM260200 VRB03KT P6SM SCT250
      TEMPO 2611/2613 4SM BR
     FM261600 07008KT P6SM FEW050=



000
FTUS44 KHGX 252006 AAA
TAFCXO
TAF AMD
KCXO 252006Z 2520/2618 VRB05KT P6SM SCT050 BKN250
     FM260200 VRB03KT P6SM SCT250
      TEMPO 2611/2613 4SM BR
     FM261600 07008KT P6SM FEW050=



000
FTUS44 KHGX 252005 AAA
TAFCLL
TAF AMD
KCLL 252005Z 2520/2618 15010KT P6SM SCT050 BKN250
     FM260100 VRB03KT P6SM SCT080 SCT250
      TEMPO 2611/2613 4SM BR
     FM261500 09007KT P6SM SCT040=



000
FTUS44 KHGX 252005 AAA
TAFCLL
TAF AMD
KCLL 252005Z 2520/2618 15010KT P6SM SCT050 BKN250
     FM260100 VRB03KT P6SM SCT080 SCT250
      TEMPO 2611/2613 4SM BR
     FM261500 09007KT P6SM SCT040=



000
FTUS44 KHGX 252005 AAA
TAFCLL
TAF AMD
KCLL 252005Z 2520/2618 15010KT P6SM SCT050 BKN250
     FM260100 VRB03KT P6SM SCT080 SCT250
      TEMPO 2611/2613 4SM BR
     FM261500 09007KT P6SM SCT040=



000
FTUS44 KHGX 252005 AAA
TAFUTS
TAF AMD
KUTS 252005Z 2520/2618 VRB05KT P6SM SCT050 BKN250
     FM260100 VRB03KT P6SM SCT080 SCT250=



000
FTUS44 KHGX 252004 AAB
TAFIAH
TAF AMD
KIAH 252004Z 2520/2624 VRB05KT 6SM -TSRA BKN040CB BKN250
     FM252100 06006KT P6SM BKN050 BKN250
     FM260200 VRB03KT P6SM SCT250
     FM261600 07008KT P6SM FEW050=



000
FTUS44 KHGX 252004 AAB
TAFIAH
TAF AMD
KIAH 252004Z 2520/2624 VRB05KT 6SM -TSRA BKN040CB BKN250
     FM252100 06006KT P6SM BKN050 BKN250
     FM260200 VRB03KT P6SM SCT250
     FM261600 07008KT P6SM FEW050=



000
FTUS44 KHGX 252003 AAC
TAFHOU
TAF AMD
KHOU 252003Z 2520/2618 03010KT P6SM -TSRA SCT040CB OVC120
     FM252100 06008KT P6SM BKN050 BKN250
     FM260200 VRB03KT P6SM SCT250
     FM261600 06008KT P6SM FEW050=



000
FTUS44 KHGX 252003 AAC
TAFHOU
TAF AMD
KHOU 252003Z 2520/2618 03010KT P6SM -TSRA SCT040CB OVC120
     FM252100 06008KT P6SM BKN050 BKN250
     FM260200 VRB03KT P6SM SCT250
     FM261600 06008KT P6SM FEW050=



000
FTUS44 KHGX 252003 AAC
TAFHOU
TAF AMD
KHOU 252003Z 2520/2618 03010KT P6SM -TSRA SCT040CB OVC120
     FM252100 06008KT P6SM BKN050 BKN250
     FM260200 VRB03KT P6SM SCT250
     FM261600 06008KT P6SM FEW050=



000
FTUS44 KHGX 252003 AAC
TAFHOU
TAF AMD
KHOU 252003Z 2520/2618 03010KT P6SM -TSRA SCT040CB OVC120
     FM252100 06008KT P6SM BKN050 BKN250
     FM260200 VRB03KT P6SM SCT250
     FM261600 06008KT P6SM FEW050=



000
FTUS44 KHGX 251947 AAB
TAFGLS
TAF AMD
KGLS 251947Z 2520/2618 03010KT P6SM -TSRA BKN035CB BKN250
      TEMPO 2520/2522 VRB20G40KT 2SM +TSRA BKN025CB
     FM252300 03008KT P6SM BKN050 BKN250
     FM260200 04006KT P6SM SCT250
     FM261200 05010KT P6SM FEW050=



000
FTUS44 KHGX 251947 AAB
TAFGLS
TAF AMD
KGLS 251947Z 2520/2618 03010KT P6SM -TSRA BKN035CB BKN250
      TEMPO 2520/2522 VRB20G40KT 2SM +TSRA BKN025CB
     FM252300 03008KT P6SM BKN050 BKN250
     FM260200 04006KT P6SM SCT250
     FM261200 05010KT P6SM FEW050=



000
FTUS44 KHGX 251947 AAB
TAFGLS
TAF AMD
KGLS 251947Z 2520/2618 03010KT P6SM -TSRA BKN035CB BKN250
      TEMPO 2520/2522 VRB20G40KT 2SM +TSRA BKN025CB
     FM252300 03008KT P6SM BKN050 BKN250
     FM260200 04006KT P6SM SCT250
     FM261200 05010KT P6SM FEW050=



000
FTUS44 KHGX 251932 AAB
TAFLBX
TAF AMD
KLBX 251932Z 2520/2618 03007KT P6SM -TSRA BKN040CB BKN250
      TEMPO 2520/2522 VRB20G40KT 2SM +TSRA BKN035CB
     FM252300 03008KT P6SM BKN050 BKN250
     FM260200 VRB03KT P6SM SCT250
     FM261600 05008KT P6SM FEW050=



000
FTUS44 KHGX 251932 AAB
TAFLBX
TAF AMD
KLBX 251932Z 2520/2618 03007KT P6SM -TSRA BKN040CB BKN250
      TEMPO 2520/2522 VRB20G40KT 2SM +TSRA BKN035CB
     FM252300 03008KT P6SM BKN050 BKN250
     FM260200 VRB03KT P6SM SCT250
     FM261600 05008KT P6SM FEW050=



000
FTUS44 KHGX 251903 AAA
TAFGLS
TAF AMD
KGLS 251903Z 2519/2618 03010KT P6SM -TSRA BKN035CB BKN250
      TEMPO 2520/2522 VRB20G40KT 2SM -TSRA BKN025CB
     FM252300 03008KT P6SM BKN050 BKN250
     FM260200 04006KT P6SM SCT250
     FM261200 05010KT P6SM FEW050=



000
FTUS44 KHGX 251903 AAA
TAFGLS
TAF AMD
KGLS 251903Z 2519/2618 03010KT P6SM -TSRA BKN035CB BKN250
      TEMPO 2520/2522 VRB20G40KT 2SM -TSRA BKN025CB
     FM252300 03008KT P6SM BKN050 BKN250
     FM260200 04006KT P6SM SCT250
     FM261200 05010KT P6SM FEW050=



000
FTUS44 KHGX 251903 AAA
TAFGLS
TAF AMD
KGLS 251903Z 2519/2618 03010KT P6SM -TSRA BKN035CB BKN250
      TEMPO 2520/2522 VRB20G40KT 2SM -TSRA BKN025CB
     FM252300 03008KT P6SM BKN050 BKN250
     FM260200 04006KT P6SM SCT250
     FM261200 05010KT P6SM FEW050=



000
FTUS44 KHGX 251901 AAA
TAFLBX
TAF AMD
KLBX 251901Z 2519/2618 VRB04KT P6SM VCTS SCT040CB SCT250
     FM252000 03007KT P6SM -TSRA BKN040CB BKN250
      TEMPO 2520/2522 VRB20G40KT 2SM +TSRA BKN035CB
     FM252300 03008KT P6SM BKN050 BKN250
     FM260200 VRB03KT P6SM SCT250
     FM261600 05008KT P6SM FEW050=



000
FTUS44 KHGX 251901 AAA
TAFLBX
TAF AMD
KLBX 251901Z 2519/2618 VRB04KT P6SM VCTS SCT040CB SCT250
     FM252000 03007KT P6SM -TSRA BKN040CB BKN250
      TEMPO 2520/2522 VRB20G40KT 2SM +TSRA BKN035CB
     FM252300 03008KT P6SM BKN050 BKN250
     FM260200 VRB03KT P6SM SCT250
     FM261600 05008KT P6SM FEW050=



000
FTUS44 KHGX 251901 AAA
TAFLBX
TAF AMD
KLBX 251901Z 2519/2618 VRB04KT P6SM VCTS SCT040CB SCT250
     FM252000 03007KT P6SM -TSRA BKN040CB BKN250
      TEMPO 2520/2522 VRB20G40KT 2SM +TSRA BKN035CB
     FM252300 03008KT P6SM BKN050 BKN250
     FM260200 VRB03KT P6SM SCT250
     FM261600 05008KT P6SM FEW050=



000
FTUS44 KHGX 251901 AAA
TAFLBX
TAF AMD
KLBX 251901Z 2519/2618 VRB04KT P6SM VCTS SCT040CB SCT250
     FM252000 03007KT P6SM -TSRA BKN040CB BKN250
      TEMPO 2520/2522 VRB20G40KT 2SM +TSRA BKN035CB
     FM252300 03008KT P6SM BKN050 BKN250
     FM260200 VRB03KT P6SM SCT250
     FM261600 05008KT P6SM FEW050=



000
FTUS44 KHGX 251858 AAB
TAFHOU
TAF AMD
KHOU 251858Z 2519/2618 01015G25KT P6SM -TSRA SCT040CB BKN250
      TEMPO 2519/2521 03020G40KT 1/2SM +TSRA FG BKN010 BKN020CB
     FM252200 06008KT P6SM BKN050 BKN250
     FM260200 VRB03KT P6SM SCT250
     FM261600 06008KT P6SM FEW050=



000
FTUS44 KHGX 251858 AAB
TAFHOU
TAF AMD
KHOU 251858Z 2519/2618 01015G25KT P6SM -TSRA SCT040CB BKN250
      TEMPO 2519/2521 03020G40KT 1/2SM +TSRA FG BKN010 BKN020CB
     FM252200 06008KT P6SM BKN050 BKN250
     FM260200 VRB03KT P6SM SCT250
     FM261600 06008KT P6SM FEW050=



000
FTUS44 KHGX 251812 AAA
TAFSGR
TAF AMD
KSGR 251812Z 2518/2618 01015G25KT P6SM -TSRA SCT040CB BKN250
      TEMPO 2519/2521 VRB20G40KT 3SM TSRA BKN035CB
     FM252200 06008KT P6SM BKN050 BKN250
     FM260200 VRB03KT P6SM SCT250
     FM261600 06008KT P6SM FEW050=



000
FTUS44 KHGX 251812 AAA
TAFSGR
TAF AMD
KSGR 251812Z 2518/2618 01015G25KT P6SM -TSRA SCT040CB BKN250
      TEMPO 2519/2521 VRB20G40KT 3SM TSRA BKN035CB
     FM252200 06008KT P6SM BKN050 BKN250
     FM260200 VRB03KT P6SM SCT250
     FM261600 06008KT P6SM FEW050=



000
FTUS44 KHGX 251800 AAA
TAFHOU
TAF AMD
KHOU 251800Z 2518/2618 01015G25KT P6SM -TSRA SCT040CB BKN250
      TEMPO 2519/2521 VRB20G40KT 3SM +TSRA BKN035CB
     FM252200 06008KT P6SM BKN050 BKN250
     FM260200 VRB03KT P6SM SCT250
     FM261600 06008KT P6SM FEW050=



000
FTUS44 KHGX 251800 AAA
TAFHOU
TAF AMD
KHOU 251800Z 2518/2618 01015G25KT P6SM -TSRA SCT040CB BKN250
      TEMPO 2519/2521 VRB20G40KT 3SM +TSRA BKN035CB
     FM252200 06008KT P6SM BKN050 BKN250
     FM260200 VRB03KT P6SM SCT250
     FM261600 06008KT P6SM FEW050=



000
FTUS44 KHGX 251800 AAA
TAFHOU
TAF AMD
KHOU 251800Z 2518/2618 01015G25KT P6SM -TSRA SCT040CB BKN250
      TEMPO 2519/2521 VRB20G40KT 3SM +TSRA BKN035CB
     FM252200 06008KT P6SM BKN050 BKN250
     FM260200 VRB03KT P6SM SCT250
     FM261600 06008KT P6SM FEW050=



000
FTUS44 KHGX 251800 AAA
TAFHOU
TAF AMD
KHOU 251800Z 2518/2618 01015G25KT P6SM -TSRA SCT040CB BKN250
      TEMPO 2519/2521 VRB20G40KT 3SM +TSRA BKN035CB
     FM252200 06008KT P6SM BKN050 BKN250
     FM260200 VRB03KT P6SM SCT250
     FM261600 06008KT P6SM FEW050=



000
FTUS44 KHGX 251759 AAA
TAFIAH
TAF AMD
KIAH 251759Z 2518/2624 02007KT 6SM -TSRA BKN040CB BKN250
      TEMPO 2518/2520 VRB20G40KT 3SM +TSRA SCT010 BKN035CB
     FM252200 06008KT P6SM BKN050 BKN250
     FM260200 VRB03KT P6SM SCT250
     FM261600 07008KT P6SM FEW050=



000
FTUS44 KHGX 251759 AAA
TAFIAH
TAF AMD
KIAH 251759Z 2518/2624 02007KT 6SM -TSRA BKN040CB BKN250
      TEMPO 2518/2520 VRB20G40KT 3SM +TSRA SCT010 BKN035CB
     FM252200 06008KT P6SM BKN050 BKN250
     FM260200 VRB03KT P6SM SCT250
     FM261600 07008KT P6SM FEW050=



000
FTUS44 KHGX 251759 AAA
TAFIAH
TAF AMD
KIAH 251759Z 2518/2624 02007KT 6SM -TSRA BKN040CB BKN250
      TEMPO 2518/2520 VRB20G40KT 3SM +TSRA SCT010 BKN035CB
     FM252200 06008KT P6SM BKN050 BKN250
     FM260200 VRB03KT P6SM SCT250
     FM261600 07008KT P6SM FEW050=



000
FTUS44 KHGX 251759 AAA
TAFIAH
TAF AMD
KIAH 251759Z 2518/2624 02007KT 6SM -TSRA BKN040CB BKN250
      TEMPO 2518/2520 VRB20G40KT 3SM +TSRA SCT010 BKN035CB
     FM252200 06008KT P6SM BKN050 BKN250
     FM260200 VRB03KT P6SM SCT250
     FM261600 07008KT P6SM FEW050=



000
FTUS44 KHGX 251727 CCA
TAFCLL
TAF COR
KCLL 251727Z 2518/2618 05009KT P6SM VCTS BKN050CB BKN250
      TEMPO 2518/2520 VRB20G35KT 2SM +TSRA BKN035CB
     FM252100 09006KT P6SM BKN050 BKN250
     FM260100 VRB03KT P6SM SCT080 SCT250
      TEMPO 2611/2613 4SM BR
     FM261500 09007KT P6SM SCT040=



000
FTUS44 KHGX 251723
TAFLBX
TAF
KLBX 251723Z 2518/2618 VRB04KT P6SM SCT040 SCT250
     FM252000 03007KT P6SM VCTS SCT040CB BKN250
      TEMPO 2520/2522 VRB15G30KT 5SM -TSRA BKN035CB
     FM252300 03008KT P6SM BKN050 BKN250
     FM260200 VRB03KT P6SM SCT250
     FM261600 05008KT P6SM FEW050=



000
FTUS44 KHGX 251723
TAFGLS
TAF
KGLS 251723Z 2518/2618 36005KT P6SM SCT030 SCT250
     FM252000 03007KT P6SM VCTS SCT035CB BKN250
      TEMPO 2520/2522 VRB15G30KT 5SM -TSRA BKN035CB
     FM252300 03008KT P6SM BKN050 BKN250
     FM260200 04006KT P6SM SCT250
     FM261200 05010KT P6SM FEW050=



000
FTUS44 KHGX 251723
TAFLBX
TAF
KLBX 251723Z 2518/2618 VRB04KT P6SM SCT040 SCT250
     FM252000 03007KT P6SM VCTS SCT040CB BKN250
      TEMPO 2520/2522 VRB15G30KT 5SM -TSRA BKN035CB
     FM252300 03008KT P6SM BKN050 BKN250
     FM260200 VRB03KT P6SM SCT250
     FM261600 05008KT P6SM FEW050=



000
FTUS44 KHGX 251723
TAFSGR
TAF
KSGR 251723Z 2518/2618 03007KT P6SM VCTS SCT040CB BKN250
      TEMPO 2519/2521 VRB15G30KT 3SM TSRA BKN035CB
     FM252200 06008KT P6SM BKN050 BKN250
     FM260200 VRB03KT P6SM SCT250
     FM261600 06008KT P6SM FEW050=



000
FTUS44 KHGX 251723
TAFSGR
TAF
KSGR 251723Z 2518/2618 03007KT P6SM VCTS SCT040CB BKN250
      TEMPO 2519/2521 VRB15G30KT 3SM TSRA BKN035CB
     FM252200 06008KT P6SM BKN050 BKN250
     FM260200 VRB03KT P6SM SCT250
     FM261600 06008KT P6SM FEW050=



000
FTUS44 KHGX 251723
TAFUTS
TAF
KUTS 251723Z 2518/2618 04007KT P6SM VCTS BKN040CB BKN250
      TEMPO 2518/2519 5SM -TSRA BKN035CB
     FM252100 09006KT P6SM BKN050 BKN250
     FM260100 VRB03KT P6SM SCT080 SCT250=



000
FTUS44 KHGX 251723
TAFCXO
TAF
KCXO 251723Z 2518/2618 04007KT P6SM VCTS SCT040CB BKN250
      TEMPO 2518/2520 VRB15G30KT 3SM TSRA BKN035CB
     FM252200 06008KT P6SM BKN050 BKN250
     FM260200 VRB03KT P6SM SCT250
      TEMPO 2611/2613 4SM BR
     FM261600 07008KT P6SM FEW050=



000
FTUS44 KHGX 251723
TAFIAH
TAF
KIAH 251723Z 2518/2624 02007KT P6SM VCTS SCT040CB BKN250
      TEMPO 2518/2520 VRB15G30KT 3SM TSRA BKN035CB
     FM252200 06008KT P6SM BKN050 BKN250
     FM260200 VRB03KT P6SM SCT250
     FM261600 07008KT P6SM FEW050=



000
FTUS44 KHGX 251723
TAFCXO
TAF
KCXO 251723Z 2518/2618 04007KT P6SM VCTS SCT040CB BKN250
      TEMPO 2518/2520 VRB15G30KT 3SM TSRA BKN035CB
     FM252200 06008KT P6SM BKN050 BKN250
     FM260200 VRB03KT P6SM SCT250
      TEMPO 2611/2613 4SM BR
     FM261600 07008KT P6SM FEW050=



000
FTUS44 KHGX 251723
TAFUTS
TAF
KUTS 251723Z 2518/2618 04007KT P6SM VCTS BKN040CB BKN250
      TEMPO 2518/2519 5SM -TSRA BKN035CB
     FM252100 09006KT P6SM BKN050 BKN250
     FM260100 VRB03KT P6SM SCT080 SCT250=



000
FTUS44 KHGX 251723
TAFCLL
TAF
KCLL 251723Z 2518/2618 05009KT P6SM VCTS BKN050CB BKN250
      TEMPO 2518/2520 VRB15G30KT 5SM -TSRA BKN035CB
     FM252100 09006KT P6SM BKN050 BKN250
     FM260100 VRB03KT P6SM SCT080 SCT250
      TEMPO 2611/2613 4SM BR
     FM261500 09007KT P6SM SCT040=



000
FTUS44 KHGX 251723
TAFGLS
TAF
KGLS 251723Z 2518/2618 36005KT P6SM SCT030 SCT250
     FM252000 03007KT P6SM VCTS SCT035CB BKN250
      TEMPO 2520/2522 VRB15G30KT 5SM -TSRA BKN035CB
     FM252300 03008KT P6SM BKN050 BKN250
     FM260200 04006KT P6SM SCT250
     FM261200 05010KT P6SM FEW050=



000
FTUS44 KHGX 251723
TAFHOU
TAF
KHOU 251723Z 2518/2618 03007KT P6SM VCTS SCT040CB BKN250
      TEMPO 2519/2521 VRB15G30KT 3SM TSRA BKN035CB
     FM252200 06008KT P6SM BKN050 BKN250
     FM260200 VRB03KT P6SM SCT250
     FM261600 06008KT P6SM FEW050=



000
FTUS44 KHGX 251723
TAFGLS
TAF
KGLS 251723Z 2518/2618 36005KT P6SM SCT030 SCT250
     FM252000 03007KT P6SM VCTS SCT035CB BKN250
      TEMPO 2520/2522 VRB15G30KT 5SM -TSRA BKN035CB
     FM252300 03008KT P6SM BKN050 BKN250
     FM260200 04006KT P6SM SCT250
     FM261200 05010KT P6SM FEW050=



000
FTUS44 KHGX 251723
TAFIAH
TAF
KIAH 251723Z 2518/2624 02007KT P6SM VCTS SCT040CB BKN250
      TEMPO 2518/2520 VRB15G30KT 3SM TSRA BKN035CB
     FM252200 06008KT P6SM BKN050 BKN250
     FM260200 VRB03KT P6SM SCT250
     FM261600 07008KT P6SM FEW050=



000
FTUS44 KHGX 251723
TAFCLL
TAF
KCLL 251723Z 2518/2618 05009KT P6SM VCTS BKN050CB BKN250
      TEMPO 2518/2520 VRB15G30KT 5SM -TSRA BKN035CB
     FM252100 09006KT P6SM BKN050 BKN250
     FM260100 VRB03KT P6SM SCT080 SCT250
      TEMPO 2611/2613 4SM BR
     FM261500 09007KT P6SM SCT040=



000
FTUS44 KHGX 251723
TAFLBX
TAF
KLBX 251723Z 2518/2618 VRB04KT P6SM SCT040 SCT250
     FM252000 03007KT P6SM VCTS SCT040CB BKN250
      TEMPO 2520/2522 VRB15G30KT 5SM -TSRA BKN035CB
     FM252300 03008KT P6SM BKN050 BKN250
     FM260200 VRB03KT P6SM SCT250
     FM261600 05008KT P6SM FEW050=



000
FTUS44 KHGX 251723
TAFHOU
TAF
KHOU 251723Z 2518/2618 03007KT P6SM VCTS SCT040CB BKN250
      TEMPO 2519/2521 VRB15G30KT 3SM TSRA BKN035CB
     FM252200 06008KT P6SM BKN050 BKN250
     FM260200 VRB03KT P6SM SCT250
     FM261600 06008KT P6SM FEW050=



000
FTUS44 KHGX 251723
TAFIAH
TAF
KIAH 251723Z 2518/2624 02007KT P6SM VCTS SCT040CB BKN250
      TEMPO 2518/2520 VRB15G30KT 3SM TSRA BKN035CB
     FM252200 06008KT P6SM BKN050 BKN250
     FM260200 VRB03KT P6SM SCT250
     FM261600 07008KT P6SM FEW050=



000
FTUS44 KHGX 251723
TAFUTS
TAF
KUTS 251723Z 2518/2618 04007KT P6SM VCTS BKN040CB BKN250
      TEMPO 2518/2519 5SM -TSRA BKN035CB
     FM252100 09006KT P6SM BKN050 BKN250
     FM260100 VRB03KT P6SM SCT080 SCT250=



000
FTUS44 KHGX 251723
TAFGLS
TAF
KGLS 251723Z 2518/2618 36005KT P6SM SCT030 SCT250
     FM252000 03007KT P6SM VCTS SCT035CB BKN250
      TEMPO 2520/2522 VRB15G30KT 5SM -TSRA BKN035CB
     FM252300 03008KT P6SM BKN050 BKN250
     FM260200 04006KT P6SM SCT250
     FM261200 05010KT P6SM FEW050=



000
FTUS44 KHGX 251723
TAFSGR
TAF
KSGR 251723Z 2518/2618 03007KT P6SM VCTS SCT040CB BKN250
      TEMPO 2519/2521 VRB15G30KT 3SM TSRA BKN035CB
     FM252200 06008KT P6SM BKN050 BKN250
     FM260200 VRB03KT P6SM SCT250
     FM261600 06008KT P6SM FEW050=



000
FTUS44 KHGX 251723
TAFHOU
TAF
KHOU 251723Z 2518/2618 03007KT P6SM VCTS SCT040CB BKN250
      TEMPO 2519/2521 VRB15G30KT 3SM TSRA BKN035CB
     FM252200 06008KT P6SM BKN050 BKN250
     FM260200 VRB03KT P6SM SCT250
     FM261600 06008KT P6SM FEW050=



000
FTUS44 KHGX 251723
TAFSGR
TAF
KSGR 251723Z 2518/2618 03007KT P6SM VCTS SCT040CB BKN250
      TEMPO 2519/2521 VRB15G30KT 3SM TSRA BKN035CB
     FM252200 06008KT P6SM BKN050 BKN250
     FM260200 VRB03KT P6SM SCT250
     FM261600 06008KT P6SM FEW050=



000
FTUS44 KHGX 251723
TAFCLL
TAF
KCLL 251723Z 2518/2618 05009KT P6SM VCTS BKN050CB BKN250
      TEMPO 2518/2520 VRB15G30KT 5SM -TSRA BKN035CB
     FM252100 09006KT P6SM BKN050 BKN250
     FM260100 VRB03KT P6SM SCT080 SCT250
      TEMPO 2611/2613 4SM BR
     FM261500 09007KT P6SM SCT040=



000
FTUS44 KHGX 251723
TAFCXO
TAF
KCXO 251723Z 2518/2618 04007KT P6SM VCTS SCT040CB BKN250
      TEMPO 2518/2520 VRB15G30KT 3SM TSRA BKN035CB
     FM252200 06008KT P6SM BKN050 BKN250
     FM260200 VRB03KT P6SM SCT250
      TEMPO 2611/2613 4SM BR
     FM261600 07008KT P6SM FEW050=



000
FTUS44 KHGX 251723
TAFIAH
TAF
KIAH 251723Z 2518/2624 02007KT P6SM VCTS SCT040CB BKN250
      TEMPO 2518/2520 VRB15G30KT 3SM TSRA BKN035CB
     FM252200 06008KT P6SM BKN050 BKN250
     FM260200 VRB03KT P6SM SCT250
     FM261600 07008KT P6SM FEW050=



000
FTUS44 KHGX 251723
TAFCXO
TAF
KCXO 251723Z 2518/2618 04007KT P6SM VCTS SCT040CB BKN250
      TEMPO 2518/2520 VRB15G30KT 3SM TSRA BKN035CB
     FM252200 06008KT P6SM BKN050 BKN250
     FM260200 VRB03KT P6SM SCT250
      TEMPO 2611/2613 4SM BR
     FM261600 07008KT P6SM FEW050=



000
FTUS44 KHGX 251723
TAFCLL
TAF
KCLL 251723Z 2518/2618 05009KT P6SM VCTS BKN050CB BKN250
      TEMPO 2518/2520 VRB15G30KT 5SM -TSRA BKN035CB
     FM252100 09006KT P6SM BKN050 BKN250
     FM260100 VRB03KT P6SM SCT080 SCT250
      TEMPO 2611/2613 4SM BR
     FM261500 09007KT P6SM SCT040=



000
FTUS44 KHGX 251723
TAFLBX
TAF
KLBX 251723Z 2518/2618 VRB04KT P6SM SCT040 SCT250
     FM252000 03007KT P6SM VCTS SCT040CB BKN250
      TEMPO 2520/2522 VRB15G30KT 5SM -TSRA BKN035CB
     FM252300 03008KT P6SM BKN050 BKN250
     FM260200 VRB03KT P6SM SCT250
     FM261600 05008KT P6SM FEW050=



000
FTUS44 KHGX 251723
TAFHOU
TAF
KHOU 251723Z 2518/2618 03007KT P6SM VCTS SCT040CB BKN250
      TEMPO 2519/2521 VRB15G30KT 3SM TSRA BKN035CB
     FM252200 06008KT P6SM BKN050 BKN250
     FM260200 VRB03KT P6SM SCT250
     FM261600 06008KT P6SM FEW050=



000
FTUS44 KHGX 251723
TAFUTS
TAF
KUTS 251723Z 2518/2618 04007KT P6SM VCTS BKN040CB BKN250
      TEMPO 2518/2519 5SM -TSRA BKN035CB
     FM252100 09006KT P6SM BKN050 BKN250
     FM260100 VRB03KT P6SM SCT080 SCT250=



000
FTUS44 KHGX 251613 AAA
TAFCXO
TAF AMD
KCXO 251613Z 2516/2612 04007KT P6SM VCTS SCT035CB SCT250
      TEMPO 2516/2518 VRB15G25KT 4SM -TSRA BKN035CB
     FM252100 VRB05KT P6SM SCT040 SCT180 BKN250
     FM260100 VRB03KT P6SM SCT060 SCT250
     FM261000 00000KT 5SM BR FEW010 SCT040=



000
FTUS44 KHGX 251613 AAA
TAFCXO
TAF AMD
KCXO 251613Z 2516/2612 04007KT P6SM VCTS SCT035CB SCT250
      TEMPO 2516/2518 VRB15G25KT 4SM -TSRA BKN035CB
     FM252100 VRB05KT P6SM SCT040 SCT180 BKN250
     FM260100 VRB03KT P6SM SCT060 SCT250
     FM261000 00000KT 5SM BR FEW010 SCT040=



000
FTUS44 KHGX 251526 AAA
TAFUTS
TAF AMD
KUTS 251526Z 2515/2612 04007KT P6SM VCTS SCT040CB SCT150
      TEMPO 2516/2517 VRB15G25KT 4SM -TSRA BKN035CB
     FM252100 09006KT P6SM BKN050 BKN250
     FM260100 VRB03KT P6SM SCT080 SCT250
     FM260900 VRB05KT P6SM SCT040=



000
FTUS44 KHGX 251526 AAA
TAFUTS
TAF AMD
KUTS 251526Z 2515/2612 04007KT P6SM VCTS SCT040CB SCT150
      TEMPO 2516/2517 VRB15G25KT 4SM -TSRA BKN035CB
     FM252100 09006KT P6SM BKN050 BKN250
     FM260100 VRB03KT P6SM SCT080 SCT250
     FM260900 VRB05KT P6SM SCT040=



000
FTUS44 KHGX 251508 AAA
TAFHOU
TAF AMD
KHOU 251508Z 2515/2612 VRB05KT P6SM SCT030 SCT250
     FM251700 VRB05KT P6SM VCTS SCT040CB SCT060 BKN250
     FM252300 VRB05KT P6SM SCT060 BKN250
     FM261000 VRB05KT P6SM VCSH SCT040=



000
FTUS44 KHGX 251508 AAA
TAFHOU
TAF AMD
KHOU 251508Z 2515/2612 VRB05KT P6SM SCT030 SCT250
     FM251700 VRB05KT P6SM VCTS SCT040CB SCT060 BKN250
     FM252300 VRB05KT P6SM SCT060 BKN250
     FM261000 VRB05KT P6SM VCSH SCT040=



000
FTUS44 KHGX 251507 AAA
TAFIAH
TAF AMD
KIAH 251507Z 2515/2618 VRB05KT P6SM SCT030
     FM251800 VRB05KT P6SM VCTS SCT040CB SCT120 BKN250
     FM260100 VRB05KT P6SM FEW035 SCT050 BKN250
     FM261600 08006KT P6SM FEW050=



000
FTUS44 KHGX 251507 AAA
TAFIAH
TAF AMD
KIAH 251507Z 2515/2618 VRB05KT P6SM SCT030
     FM251800 VRB05KT P6SM VCTS SCT040CB SCT120 BKN250
     FM260100 VRB05KT P6SM FEW035 SCT050 BKN250
     FM261600 08006KT P6SM FEW050=



000
FTUS44 KHGX 251142
TAFUTS
TAF
KUTS 251142Z 2512/2612 VRB04KT P6SM SCT250
     FM251500 VRB03KT P6SM SCT040 SCT150
     FM251800 VRB05KT P6SM VCTS SCT070CB
     FM260100 VRB03KT P6SM SCT080 SCT250
     FM260900 VRB05KT P6SM SCT040=



000
FTUS44 KHGX 251142
TAFCLL
TAF
KCLL 251142Z 2512/2612 VRB03KT P6SM SCT250
     FM251500 VRB05KT P6SM SCT040 SCT150
     FM251800 VRB05KT P6SM VCTS SCT070CB
     FM260200 VRB04KT P6SM SCT080 SCT250
     FM260900 VRB05KT P6SM SCT040=



000
FTUS44 KHGX 251142
TAFSGR
TAF
KSGR 251142Z 2512/2612 VRB04KT P6SM SCT250
     FM251500 VRB03KT P6SM SCT035 SCT250
     FM251700 VRB05KT P6SM VCTS SCT040CB SCT060 BKN250
     FM252300 VRB05KT P6SM SCT060 BKN250
     FM261000 VRB05KT P6SM VCSH SCT040=



000
FTUS44 KHGX 251142
TAFLBX
TAF
KLBX 251142Z 2512/2612 VRB04KT P6SM SCT250
      TEMPO 2512/2513 1 1/2SM BR
     FM251500 04005KT P6SM VCSH SCT035
     FM251700 18006KT P6SM VCTS SCT040CB
     FM252300 VRB05KT P6SM SCT060 BKN250
     FM261000 VRB05KT 6SM BR VCSH SCT040=



000
FTUS44 KHGX 251142
TAFSGR
TAF
KSGR 251142Z 2512/2612 VRB04KT P6SM SCT250
     FM251500 VRB03KT P6SM SCT035 SCT250
     FM251700 VRB05KT P6SM VCTS SCT040CB SCT060 BKN250
     FM252300 VRB05KT P6SM SCT060 BKN250
     FM261000 VRB05KT P6SM VCSH SCT040=



000
FTUS44 KHGX 251142
TAFCXO
TAF
KCXO 251142Z 2512/2612 00000KT P6SM SCT250
      TEMPO 2512/2513 5SM BR
     FM251500 VRB03KT P6SM SCT035 SCT250
     FM251800 VRB05KT P6SM VCSH SCT040 SCT180 BKN250
     FM260100 VRB03KT P6SM SCT060 SCT250
     FM261000 00000KT 5SM BR FEW010 SCT040=



000
FTUS44 KHGX 251142
TAFCXO
TAF
KCXO 251142Z 2512/2612 00000KT P6SM SCT250
      TEMPO 2512/2513 5SM BR
     FM251500 VRB03KT P6SM SCT035 SCT250
     FM251800 VRB05KT P6SM VCSH SCT040 SCT180 BKN250
     FM260100 VRB03KT P6SM SCT060 SCT250
     FM261000 00000KT 5SM BR FEW010 SCT040=



000
FTUS44 KHGX 251142
TAFUTS
TAF
KUTS 251142Z 2512/2612 VRB04KT P6SM SCT250
     FM251500 VRB03KT P6SM SCT040 SCT150
     FM251800 VRB05KT P6SM VCTS SCT070CB
     FM260100 VRB03KT P6SM SCT080 SCT250
     FM260900 VRB05KT P6SM SCT040=



000
FTUS44 KHGX 251142
TAFCLL
TAF
KCLL 251142Z 2512/2612 VRB03KT P6SM SCT250
     FM251500 VRB05KT P6SM SCT040 SCT150
     FM251800 VRB05KT P6SM VCTS SCT070CB
     FM260200 VRB04KT P6SM SCT080 SCT250
     FM260900 VRB05KT P6SM SCT040=



000
FTUS44 KHGX 251142
TAFHOU
TAF
KHOU 251142Z 2512/2612 VRB03KT P6SM SCT250
     FM251500 VRB03KT P6SM SCT035 SCT250
     FM251700 VRB05KT P6SM VCTS SCT040CB SCT060 BKN250
     FM252300 VRB05KT P6SM SCT060 BKN250
     FM261000 VRB05KT P6SM VCSH SCT040=



000
FTUS44 KHGX 251142
TAFGLS
TAF
KGLS 251142Z 2512/2612 32006KT P6SM FEW040 SCT250
     FM251600 33006KT P6SM VCSH SCT035
     FM252000 11008KT P6SM SCT050 BKN250
     FM260800 VRB04KT P6SM VCSH SCT030=



000
FTUS44 KHGX 251142
TAFGLS
TAF
KGLS 251142Z 2512/2612 32006KT P6SM FEW040 SCT250
     FM251600 33006KT P6SM VCSH SCT035
     FM252000 11008KT P6SM SCT050 BKN250
     FM260800 VRB04KT P6SM VCSH SCT030=



000
FTUS44 KHGX 251142
TAFIAH
TAF
KIAH 251142Z 2512/2618 VRB03KT P6SM SCT250
     FM251500 VRB06KT P6SM SCT030
     FM251800 VRB05KT P6SM VCTS SCT040CB SCT120 BKN250
     FM260100 VRB05KT P6SM FEW035 SCT050 BKN250
     FM261600 08006KT P6SM FEW050=



000
FTUS44 KHGX 251142
TAFLBX
TAF
KLBX 251142Z 2512/2612 VRB04KT P6SM SCT250
      TEMPO 2512/2513 1 1/2SM BR
     FM251500 04005KT P6SM VCSH SCT035
     FM251700 18006KT P6SM VCTS SCT040CB
     FM252300 VRB05KT P6SM SCT060 BKN250
     FM261000 VRB05KT 6SM BR VCSH SCT040=



000
FTUS44 KHGX 251142
TAFUTS
TAF
KUTS 251142Z 2512/2612 VRB04KT P6SM SCT250
     FM251500 VRB03KT P6SM SCT040 SCT150
     FM251800 VRB05KT P6SM VCTS SCT070CB
     FM260100 VRB03KT P6SM SCT080 SCT250
     FM260900 VRB05KT P6SM SCT040=



000
FTUS44 KHGX 251142
TAFCXO
TAF
KCXO 251142Z 2512/2612 00000KT P6SM SCT250
      TEMPO 2512/2513 5SM BR
     FM251500 VRB03KT P6SM SCT035 SCT250
     FM251800 VRB05KT P6SM VCSH SCT040 SCT180 BKN250
     FM260100 VRB03KT P6SM SCT060 SCT250
     FM261000 00000KT 5SM BR FEW010 SCT040=



000
FTUS44 KHGX 251142
TAFIAH
TAF
KIAH 251142Z 2512/2618 VRB03KT P6SM SCT250
     FM251500 VRB06KT P6SM SCT030
     FM251800 VRB05KT P6SM VCTS SCT040CB SCT120 BKN250
     FM260100 VRB05KT P6SM FEW035 SCT050 BKN250
     FM261600 08006KT P6SM FEW050=



000
FTUS44 KHGX 251142
TAFCLL
TAF
KCLL 251142Z 2512/2612 VRB03KT P6SM SCT250
     FM251500 VRB05KT P6SM SCT040 SCT150
     FM251800 VRB05KT P6SM VCTS SCT070CB
     FM260200 VRB04KT P6SM SCT080 SCT250
     FM260900 VRB05KT P6SM SCT040=



000
FTUS44 KHGX 251142
TAFUTS
TAF
KUTS 251142Z 2512/2612 VRB04KT P6SM SCT250
     FM251500 VRB03KT P6SM SCT040 SCT150
     FM251800 VRB05KT P6SM VCTS SCT070CB
     FM260100 VRB03KT P6SM SCT080 SCT250
     FM260900 VRB05KT P6SM SCT040=



000
FTUS44 KHGX 251142
TAFLBX
TAF
KLBX 251142Z 2512/2612 VRB04KT P6SM SCT250
      TEMPO 2512/2513 1 1/2SM BR
     FM251500 04005KT P6SM VCSH SCT035
     FM251700 18006KT P6SM VCTS SCT040CB
     FM252300 VRB05KT P6SM SCT060 BKN250
     FM261000 VRB05KT 6SM BR VCSH SCT040=



000
FTUS44 KHGX 251142
TAFSGR
TAF
KSGR 251142Z 2512/2612 VRB04KT P6SM SCT250
     FM251500 VRB03KT P6SM SCT035 SCT250
     FM251700 VRB05KT P6SM VCTS SCT040CB SCT060 BKN250
     FM252300 VRB05KT P6SM SCT060 BKN250
     FM261000 VRB05KT P6SM VCSH SCT040=



000
FTUS44 KHGX 251142
TAFCXO
TAF
KCXO 251142Z 2512/2612 00000KT P6SM SCT250
      TEMPO 2512/2513 5SM BR
     FM251500 VRB03KT P6SM SCT035 SCT250
     FM251800 VRB05KT P6SM VCSH SCT040 SCT180 BKN250
     FM260100 VRB03KT P6SM SCT060 SCT250
     FM261000 00000KT 5SM BR FEW010 SCT040=



000
FTUS44 KHGX 251142
TAFGLS
TAF
KGLS 251142Z 2512/2612 32006KT P6SM FEW040 SCT250
     FM251600 33006KT P6SM VCSH SCT035
     FM252000 11008KT P6SM SCT050 BKN250
     FM260800 VRB04KT P6SM VCSH SCT030=



000
FTUS44 KHGX 251142
TAFCLL
TAF
KCLL 251142Z 2512/2612 VRB03KT P6SM SCT250
     FM251500 VRB05KT P6SM SCT040 SCT150
     FM251800 VRB05KT P6SM VCTS SCT070CB
     FM260200 VRB04KT P6SM SCT080 SCT250
     FM260900 VRB05KT P6SM SCT040=



000
FTUS44 KHGX 251142
TAFIAH
TAF
KIAH 251142Z 2512/2618 VRB03KT P6SM SCT250
     FM251500 VRB06KT P6SM SCT030
     FM251800 VRB05KT P6SM VCTS SCT040CB SCT120 BKN250
     FM260100 VRB05KT P6SM FEW035 SCT050 BKN250
     FM261600 08006KT P6SM FEW050=



000
FTUS44 KHGX 251142
TAFHOU
TAF
KHOU 251142Z 2512/2612 VRB03KT P6SM SCT250
     FM251500 VRB03KT P6SM SCT035 SCT250
     FM251700 VRB05KT P6SM VCTS SCT040CB SCT060 BKN250
     FM252300 VRB05KT P6SM SCT060 BKN250
     FM261000 VRB05KT P6SM VCSH SCT040=



000
FTUS44 KHGX 251142
TAFIAH
TAF
KIAH 251142Z 2512/2618 VRB03KT P6SM SCT250
     FM251500 VRB06KT P6SM SCT030
     FM251800 VRB05KT P6SM VCTS SCT040CB SCT120 BKN250
     FM260100 VRB05KT P6SM FEW035 SCT050 BKN250
     FM261600 08006KT P6SM FEW050=



000
FTUS44 KHGX 251142
TAFHOU
TAF
KHOU 251142Z 2512/2612 VRB03KT P6SM SCT250
     FM251500 VRB03KT P6SM SCT035 SCT250
     FM251700 VRB05KT P6SM VCTS SCT040CB SCT060 BKN250
     FM252300 VRB05KT P6SM SCT060 BKN250
     FM261000 VRB05KT P6SM VCSH SCT040=



000
FTUS44 KHGX 250929 AAA
TAFIAH
TAF AMD
KIAH 250929Z 2509/2612 00000KT P6SM BKN250
     FM251000 VRB03KT P6SM SCT012
     FM251500 VRB06KT P6SM SCT030
     FM251800 VRB05KT P6SM VCTS SCT040CB SCT120 BKN250
     FM260100 VRB05KT P6SM FEW035 SCT060=



000
FTUS44 KHGX 250929 AAA
TAFHOU
TAF AMD
KHOU 250929Z 2509/2606 00000KT P6SM SCT250
     FM251500 VRB03KT P6SM FEW045 SCT250
     FM251800 VRB05KT P6SM VCTS SCT040CB SCT060 BKN250
     FM260000 VRB05KT P6SM SCT060=



000
FTUS44 KHGX 250929 AAA
TAFHOU
TAF AMD
KHOU 250929Z 2509/2606 00000KT P6SM SCT250
     FM251500 VRB03KT P6SM FEW045 SCT250
     FM251800 VRB05KT P6SM VCTS SCT040CB SCT060 BKN250
     FM260000 VRB05KT P6SM SCT060=



000
FTUS44 KHGX 250929 AAA
TAFIAH
TAF AMD
KIAH 250929Z 2509/2612 00000KT P6SM BKN250
     FM251000 VRB03KT P6SM SCT012
     FM251500 VRB06KT P6SM SCT030
     FM251800 VRB05KT P6SM VCTS SCT040CB SCT120 BKN250
     FM260100 VRB05KT P6SM FEW035 SCT060=



000
FTUS44 KHGX 250520
TAFGLS
TAF
KGLS 250520Z 2506/2606 21006KT P6SM FEW025
     FM251500 33006KT P6SM VCSH SCT035
     FM252100 11008KT P6SM VCSH SCT050
     FM260000 16006KT P6SM SCT060
      AMD NOT SKED=



000
FTUS44 KHGX 250520
TAFCLL
TAF
KCLL 250520Z 2506/2606 22006KT P6SM FEW070
     FM251500 VRB05KT P6SM SCT040 SCT150
     FM251900 13005KT P6SM VCTS SCT070CB
     FM260200 VRB04KT P6SM FEW090=



000
FTUS44 KHGX 250520
TAFCLL
TAF
KCLL 250520Z 2506/2606 22006KT P6SM FEW070
     FM251500 VRB05KT P6SM SCT040 SCT150
     FM251900 13005KT P6SM VCTS SCT070CB
     FM260200 VRB04KT P6SM FEW090=



000
FTUS44 KHGX 250520
TAFHOU
TAF
KHOU 250520Z 2506/2606 20005KT P6SM SCT250
     FM251500 VRB03KT P6SM FEW045 SCT250
     FM251800 VRB05KT P6SM VCTS SCT040CB SCT060 BKN250
     FM260000 VRB05KT P6SM SCT060=



000
FTUS44 KHGX 250520
TAFUTS
TAF
KUTS 250520Z 2506/2606 VRB03KT P6SM SCT250
     FM251400 VRB03KT P6SM SCT040 SCT150
     FM251900 VRB05KT P6SM VCTS SCT070CB
     FM260100 VRB03KT P6SM FEW090=



000
FTUS44 KHGX 250520
TAFIAH
TAF
KIAH 250520Z 2506/2612 19005KT P6SM SCT250
     FM251000 VRB03KT P6SM SCT012
     FM251500 VRB06KT P6SM SCT030
     FM251800 VRB05KT P6SM VCTS SCT040CB SCT120 BKN250
     FM260100 VRB05KT P6SM FEW035 SCT060=



000
FTUS44 KHGX 250520
TAFUTS
TAF
KUTS 250520Z 2506/2606 VRB03KT P6SM SCT250
     FM251400 VRB03KT P6SM SCT040 SCT150
     FM251900 VRB05KT P6SM VCTS SCT070CB
     FM260100 VRB03KT P6SM FEW090=



000
FTUS44 KHGX 250520
TAFCLL
TAF
KCLL 250520Z 2506/2606 22006KT P6SM FEW070
     FM251500 VRB05KT P6SM SCT040 SCT150
     FM251900 13005KT P6SM VCTS SCT070CB
     FM260200 VRB04KT P6SM FEW090=



000
FTUS44 KHGX 250520
TAFHOU
TAF
KHOU 250520Z 2506/2606 20005KT P6SM SCT250
     FM251500 VRB03KT P6SM FEW045 SCT250
     FM251800 VRB05KT P6SM VCTS SCT040CB SCT060 BKN250
     FM260000 VRB05KT P6SM SCT060=



000
FTUS44 KHGX 250520
TAFSGR
TAF
KSGR 250520Z 2506/2606 VRB04KT P6SM SCT250
     FM251500 VRB03KT P6SM FEW045 SCT250
     FM251800 VRB05KT P6SM VCTS SCT040CB SCT060 BKN250
     FM260100 VRB05KT P6SM SCT060=



000
FTUS44 KHGX 250520
TAFHOU
TAF
KHOU 250520Z 2506/2606 20005KT P6SM SCT250
     FM251500 VRB03KT P6SM FEW045 SCT250
     FM251800 VRB05KT P6SM VCTS SCT040CB SCT060 BKN250
     FM260000 VRB05KT P6SM SCT060=



000
FTUS44 KHGX 250520
TAFLBX
TAF
KLBX 250520Z 2506/2606 16009KT P6SM FEW050
     FM251000 VRB03KT 6SM BR FEW006 FEW015
     FM251330 VRB04KT P6SM FEW025
     FM251500 04005KT P6SM VCSH SCT035
     FM251800 18006KT P6SM VCTS SCT040CB
     FM260100 VRB05KT P6SM SCT060=



000
FTUS44 KHGX 250520
TAFIAH
TAF
KIAH 250520Z 2506/2612 19005KT P6SM SCT250
     FM251000 VRB03KT P6SM SCT012
     FM251500 VRB06KT P6SM SCT030
     FM251800 VRB05KT P6SM VCTS SCT040CB SCT120 BKN250
     FM260100 VRB05KT P6SM FEW035 SCT060=



000
FTUS44 KHGX 250520
TAFUTS
TAF
KUTS 250520Z 2506/2606 VRB03KT P6SM SCT250
     FM251400 VRB03KT P6SM SCT040 SCT150
     FM251900 VRB05KT P6SM VCTS SCT070CB
     FM260100 VRB03KT P6SM FEW090=



000
FTUS44 KHGX 250520
TAFGLS
TAF
KGLS 250520Z 2506/2606 21006KT P6SM FEW025
     FM251500 33006KT P6SM VCSH SCT035
     FM252100 11008KT P6SM VCSH SCT050
     FM260000 16006KT P6SM SCT060
      AMD NOT SKED=



000
FTUS44 KHGX 250520
TAFCXO
TAF
KCXO 250520Z 2506/2606 VRB03KT P6SM FEW006 SCT250
     FM251400 VRB03KT P6SM SCT035 SCT250
     FM251700 VRB05KT P6SM VCSH SCT040 SCT180 BKN250
     FM252000 VRB05KT P6SM VCTS SCT060CB
     FM260200 VRB03KT P6SM SCT060=



000
FTUS44 KHGX 250520
TAFCXO
TAF
KCXO 250520Z 2506/2606 VRB03KT P6SM FEW006 SCT250
     FM251400 VRB03KT P6SM SCT035 SCT250
     FM251700 VRB05KT P6SM VCSH SCT040 SCT180 BKN250
     FM252000 VRB05KT P6SM VCTS SCT060CB
     FM260200 VRB03KT P6SM SCT060=



000
FTUS44 KHGX 250520
TAFSGR
TAF
KSGR 250520Z 2506/2606 VRB04KT P6SM SCT250
     FM251500 VRB03KT P6SM FEW045 SCT250
     FM251800 VRB05KT P6SM VCTS SCT040CB SCT060 BKN250
     FM260100 VRB05KT P6SM SCT060=



000
FTUS44 KHGX 250520
TAFLBX
TAF
KLBX 250520Z 2506/2606 16009KT P6SM FEW050
     FM251000 VRB03KT 6SM BR FEW006 FEW015
     FM251330 VRB04KT P6SM FEW025
     FM251500 04005KT P6SM VCSH SCT035
     FM251800 18006KT P6SM VCTS SCT040CB
     FM260100 VRB05KT P6SM SCT060=



000
FTUS44 KHGX 250520
TAFSGR
TAF
KSGR 250520Z 2506/2606 VRB04KT P6SM SCT250
     FM251500 VRB03KT P6SM FEW045 SCT250
     FM251800 VRB05KT P6SM VCTS SCT040CB SCT060 BKN250
     FM260100 VRB05KT P6SM SCT060=



000
FTUS44 KHGX 250520
TAFIAH
TAF
KIAH 250520Z 2506/2612 19005KT P6SM SCT250
     FM251000 VRB03KT P6SM SCT012
     FM251500 VRB06KT P6SM SCT030
     FM251800 VRB05KT P6SM VCTS SCT040CB SCT120 BKN250
     FM260100 VRB05KT P6SM FEW035 SCT060=



000
FTUS44 KHGX 250520
TAFLBX
TAF
KLBX 250520Z 2506/2606 16009KT P6SM FEW050
     FM251000 VRB03KT 6SM BR FEW006 FEW015
     FM251330 VRB04KT P6SM FEW025
     FM251500 04005KT P6SM VCSH SCT035
     FM251800 18006KT P6SM VCTS SCT040CB
     FM260100 VRB05KT P6SM SCT060=



000
FTUS44 KHGX 250520
TAFGLS
TAF
KGLS 250520Z 2506/2606 21006KT P6SM FEW025
     FM251500 33006KT P6SM VCSH SCT035
     FM252100 11008KT P6SM VCSH SCT050
     FM260000 16006KT P6SM SCT060
      AMD NOT SKED=



000
FTUS44 KHGX 250520
TAFCXO
TAF
KCXO 250520Z 2506/2606 VRB03KT P6SM FEW006 SCT250
     FM251400 VRB03KT P6SM SCT035 SCT250
     FM251700 VRB05KT P6SM VCSH SCT040 SCT180 BKN250
     FM252000 VRB05KT P6SM VCTS SCT060CB
     FM260200 VRB03KT P6SM SCT060=



000
FTUS44 KHGX 250520
TAFGLS
TAF
KGLS 250520Z 2506/2606 21006KT P6SM FEW025
     FM251500 33006KT P6SM VCSH SCT035
     FM252100 11008KT P6SM VCSH SCT050
     FM260000 16006KT P6SM SCT060
      AMD NOT SKED=



000
FTUS44 KHGX 250520
TAFSGR
TAF
KSGR 250520Z 2506/2606 VRB04KT P6SM SCT250
     FM251500 VRB03KT P6SM FEW045 SCT250
     FM251800 VRB05KT P6SM VCTS SCT040CB SCT060 BKN250
     FM260100 VRB05KT P6SM SCT060=



000
FTUS44 KHGX 250520
TAFLBX
TAF
KLBX 250520Z 2506/2606 16009KT P6SM FEW050
     FM251000 VRB03KT 6SM BR FEW006 FEW015
     FM251330 VRB04KT P6SM FEW025
     FM251500 04005KT P6SM VCSH SCT035
     FM251800 18006KT P6SM VCTS SCT040CB
     FM260100 VRB05KT P6SM SCT060=



    US Dept of Commerce
    National Oceanic and Atmospheric Administration
    National Weather Service
    1325 East West Highway
    Silver Spring, MD 20910
    Page Author: NWS Internet Services Team
Disclaimer
Information Quality
Credits
Glossary
Privacy Policy
Freedom of Information Act (FOIA)
About Us
Career Opportunities